<?xml version='1.0' encoding='utf-8'?>
<gpx xmlns="http://www.topografix.com/GPX/1/1" xmlns:xsi="http://www.w3.org/2001/XMLSchema-instance" version="1.1" creator="RunGap 1138 with Barometer" xsi:schemaLocation="http://www.topografix.com/GPX/1/1 http://www.topografix.com/GPX/1/1/gpx.xsd http://www.garmin.com/xmlschemas/GpxExtensions/v3 http://www.garmin.com/xmlschemas/GpxExtensionsv3.xsd http://www.garmin.com/xmlschemas/TrackPointExtension/v1 http://www.garmin.com/xmlschemas/TrackPointExtensionv1.xsd">
  <trk>
    <name>Blåvand - Vejers Strand</name>
    <type>Hiking</type>
    <trkseg>
      <trkpt lat="55.5547000" lon="8.1264350"><ele>7.9</ele>
        <time>2026-08-05T17:38:09Z</time>
      </trkpt><trkpt lat="55.5547900" lon="8.1267180"><ele>7.9</ele>
        <time>2026-08-05T17:38:21Z</time>
      </trkpt><trkpt lat="55.5548680" lon="8.1270530"><ele>7.9</ele>
        <time>2026-08-05T17:38:35Z</time>
      </trkpt><trkpt lat="55.5549380" lon="8.1273720"><ele>7.9</ele>
        <time>2026-08-05T17:38:47Z</time>
      </trkpt><trkpt lat="55.5549980" lon="8.1277110"><ele>7.9</ele>
        <time>2026-08-05T17:38:59Z</time>
      </trkpt><trkpt lat="55.5550450" lon="8.1280650"><ele>8.0</ele>
        <time>2026-08-05T17:39:11Z</time>
      </trkpt><trkpt lat="55.5550850" lon="8.1284120"><ele>8.0</ele>
        <time>2026-08-05T17:39:23Z</time>
      </trkpt><trkpt lat="55.5551200" lon="8.1287710"><ele>8.0</ele>
        <time>2026-08-05T17:39:36Z</time>
      </trkpt><trkpt lat="55.5551550" lon="8.1290960"><ele>8.0</ele>
        <time>2026-08-05T17:39:47Z</time>
      </trkpt><trkpt lat="55.5552180" lon="8.1294240"><ele>8.1</ele>
        <time>2026-08-05T17:39:59Z</time>
      </trkpt><trkpt lat="55.5552540" lon="8.1297640"><ele>8.1</ele>
        <time>2026-08-05T17:40:12Z</time>
      </trkpt><trkpt lat="55.5552830" lon="8.1301050"><ele>8.1</ele>
        <time>2026-08-05T17:40:25Z</time>
      </trkpt><trkpt lat="55.5553230" lon="8.1304400"><ele>8.1</ele>
        <time>2026-08-05T17:40:38Z</time>
      </trkpt><trkpt lat="55.5553540" lon="8.1307620"><ele>8.2</ele>
        <time>2026-08-05T17:40:50Z</time>
      </trkpt><trkpt lat="55.5552860" lon="8.1306550"><ele>8.2</ele>
        <time>2026-08-05T17:41:22Z</time>
      </trkpt><trkpt lat="55.5552450" lon="8.1304850"><ele>8.2</ele>
        <time>2026-08-05T17:41:29Z</time>
      </trkpt><trkpt lat="55.5551930" lon="8.1301580"><ele>8.3</ele>
        <time>2026-08-05T17:41:41Z</time>
      </trkpt><trkpt lat="55.5551500" lon="8.1298270"><ele>8.4</ele>
        <time>2026-08-05T17:41:52Z</time>
      </trkpt><trkpt lat="55.5551130" lon="8.1294820"><ele>8.4</ele>
        <time>2026-08-05T17:42:04Z</time>
      </trkpt><trkpt lat="55.5550910" lon="8.1291540"><ele>8.5</ele>
        <time>2026-08-05T17:42:15Z</time>
      </trkpt><trkpt lat="55.5550450" lon="8.1288090"><ele>8.6</ele>
        <time>2026-08-05T17:42:28Z</time>
      </trkpt><trkpt lat="55.5549920" lon="8.1284650"><ele>8.7</ele>
        <time>2026-08-05T17:42:40Z</time>
      </trkpt><trkpt lat="55.5549590" lon="8.1281120"><ele>8.8</ele>
        <time>2026-08-05T17:42:52Z</time>
      </trkpt><trkpt lat="55.5549100" lon="8.1277580"><ele>8.9</ele>
        <time>2026-08-05T17:43:04Z</time>
      </trkpt><trkpt lat="55.5548520" lon="8.1274510"><ele>8.9</ele>
        <time>2026-08-05T17:43:14Z</time>
      </trkpt><trkpt lat="55.5547860" lon="8.1271260"><ele>8.8</ele>
        <time>2026-08-05T17:43:25Z</time>
      </trkpt><trkpt lat="55.5547160" lon="8.1267870"><ele>8.7</ele>
        <time>2026-08-05T17:43:37Z</time>
      </trkpt><trkpt lat="55.5546210" lon="8.1264750"><ele>8.6</ele>
        <time>2026-08-05T17:43:49Z</time>
      </trkpt><trkpt lat="55.5545370" lon="8.1261500"><ele>8.4</ele>
        <time>2026-08-05T17:44:01Z</time>
      </trkpt><trkpt lat="55.5544410" lon="8.1258320"><ele>8.3</ele>
        <time>2026-08-05T17:44:13Z</time>
      </trkpt><trkpt lat="55.5543440" lon="8.1255350"><ele>8.2</ele>
        <time>2026-08-05T17:44:25Z</time>
      </trkpt><trkpt lat="55.5542490" lon="8.1252260"><ele>8.1</ele>
        <time>2026-08-05T17:44:37Z</time>
      </trkpt><trkpt lat="55.5541390" lon="8.1249210"><ele>8.0</ele>
        <time>2026-08-05T17:44:49Z</time>
      </trkpt><trkpt lat="55.5540390" lon="8.1246280"><ele>7.9</ele>
        <time>2026-08-05T17:45:01Z</time>
      </trkpt><trkpt lat="55.5539360" lon="8.1243390"><ele>7.8</ele>
        <time>2026-08-05T17:45:12Z</time>
      </trkpt><trkpt lat="55.5538540" lon="8.1240330"><ele>7.8</ele>
        <time>2026-08-05T17:45:24Z</time>
      </trkpt><trkpt lat="55.5537680" lon="8.1237530"><ele>7.8</ele>
        <time>2026-08-05T17:45:36Z</time>
      </trkpt><trkpt lat="55.5536800" lon="8.1234230"><ele>7.7</ele>
        <time>2026-08-05T17:45:48Z</time>
      </trkpt><trkpt lat="55.5536200" lon="8.1232890"><ele>7.7</ele>
        <time>2026-08-05T17:45:54Z</time>
      </trkpt><trkpt lat="55.5535270" lon="8.1229940"><ele>7.7</ele>
        <time>2026-08-05T17:46:06Z</time>
      </trkpt><trkpt lat="55.5534600" lon="8.1228690"><ele>7.7</ele>
        <time>2026-08-05T17:46:13Z</time>
      </trkpt><trkpt lat="55.5534320" lon="8.1227170"><ele>7.7</ele>
        <time>2026-08-05T17:46:32Z</time>
      </trkpt><trkpt lat="55.5533830" lon="8.1225750"><ele>7.6</ele>
        <time>2026-08-05T17:46:38Z</time>
      </trkpt><trkpt lat="55.5532980" lon="8.1222840"><ele>7.6</ele>
        <time>2026-08-05T17:46:50Z</time>
      </trkpt><trkpt lat="55.5531930" lon="8.1219690"><ele>7.6</ele>
        <time>2026-08-05T17:47:04Z</time>
      </trkpt><trkpt lat="55.5531030" lon="8.1216740"><ele>7.6</ele>
        <time>2026-08-05T17:47:16Z</time>
      </trkpt><trkpt lat="55.5530300" lon="8.1213720"><ele>7.6</ele>
        <time>2026-08-05T17:47:28Z</time>
      </trkpt><trkpt lat="55.5529370" lon="8.1210570"><ele>7.6</ele>
        <time>2026-08-05T17:47:40Z</time>
      </trkpt><trkpt lat="55.5528660" lon="8.1209270"><ele>7.6</ele>
        <time>2026-08-05T17:47:47Z</time>
      </trkpt><trkpt lat="55.5528380" lon="8.1207700"><ele>7.6</ele>
        <time>2026-08-05T17:47:53Z</time>
      </trkpt><trkpt lat="55.5527700" lon="8.1204380"><ele>7.6</ele>
        <time>2026-08-05T17:48:06Z</time>
      </trkpt><trkpt lat="55.5526880" lon="8.1201320"><ele>7.6</ele>
        <time>2026-08-05T17:48:18Z</time>
      </trkpt><trkpt lat="55.5526840" lon="8.1199490"><ele>7.7</ele>
        <time>2026-08-05T17:48:24Z</time>
      </trkpt><trkpt lat="55.5526390" lon="8.1198040"><ele>7.7</ele>
        <time>2026-08-05T17:48:30Z</time>
      </trkpt><trkpt lat="55.5526530" lon="8.1196460"><ele>7.7</ele>
        <time>2026-08-05T17:48:35Z</time>
      </trkpt><trkpt lat="55.5526970" lon="8.1193100"><ele>7.7</ele>
        <time>2026-08-05T17:48:47Z</time>
      </trkpt><trkpt lat="55.5526840" lon="8.1191320"><ele>7.7</ele>
        <time>2026-08-05T17:48:53Z</time>
      </trkpt><trkpt lat="55.5526520" lon="8.1187810"><ele>7.6</ele>
        <time>2026-08-05T17:49:05Z</time>
      </trkpt><trkpt lat="55.5526370" lon="8.1184050"><ele>7.5</ele>
        <time>2026-08-05T17:49:19Z</time>
      </trkpt><trkpt lat="55.5526170" lon="8.1180460"><ele>7.4</ele>
        <time>2026-08-05T17:49:29Z</time>
      </trkpt><trkpt lat="55.5526000" lon="8.1177200"><ele>7.2</ele>
        <time>2026-08-05T17:49:40Z</time>
      </trkpt><trkpt lat="55.5525970" lon="8.1173840"><ele>7.1</ele>
        <time>2026-08-05T17:49:52Z</time>
      </trkpt><trkpt lat="55.5525640" lon="8.1170270"><ele>7.0</ele>
        <time>2026-08-05T17:50:04Z</time>
      </trkpt><trkpt lat="55.5525340" lon="8.1166710"><ele>6.8</ele>
        <time>2026-08-05T17:50:16Z</time>
      </trkpt><trkpt lat="55.5525100" lon="8.1163280"><ele>6.7</ele>
        <time>2026-08-05T17:50:28Z</time>
      </trkpt><trkpt lat="55.5524910" lon="8.1159810"><ele>6.6</ele>
        <time>2026-08-05T17:50:40Z</time>
      </trkpt><trkpt lat="55.5524770" lon="8.1156320"><ele>6.5</ele>
        <time>2026-08-05T17:50:52Z</time>
      </trkpt><trkpt lat="55.5524600" lon="8.1152790"><ele>6.6</ele>
        <time>2026-08-05T17:51:04Z</time>
      </trkpt><trkpt lat="55.5523890" lon="8.1149600"><ele>6.6</ele>
        <time>2026-08-05T17:51:16Z</time>
      </trkpt><trkpt lat="55.5522590" lon="8.1147430"><ele>6.7</ele>
        <time>2026-08-05T17:51:28Z</time>
      </trkpt><trkpt lat="55.5521580" lon="8.1147080"><ele>6.7</ele>
        <time>2026-08-05T17:51:34Z</time>
      </trkpt><trkpt lat="55.5519580" lon="8.1146620"><ele>6.7</ele>
        <time>2026-08-05T17:51:46Z</time>
      </trkpt><trkpt lat="55.5517520" lon="8.1146770"><ele>6.8</ele>
        <time>2026-08-05T17:51:58Z</time>
      </trkpt><trkpt lat="55.5515670" lon="8.1147070"><ele>6.8</ele>
        <time>2026-08-05T17:52:10Z</time>
      </trkpt><trkpt lat="55.5513730" lon="8.1147220"><ele>6.8</ele>
        <time>2026-08-05T17:52:21Z</time>
      </trkpt><trkpt lat="55.5511930" lon="8.1146890"><ele>6.9</ele>
        <time>2026-08-05T17:52:32Z</time>
      </trkpt><trkpt lat="55.5510020" lon="8.1146120"><ele>6.8</ele>
        <time>2026-08-05T17:52:44Z</time>
      </trkpt><trkpt lat="55.5509670" lon="8.1144640"><ele>6.7</ele>
        <time>2026-08-05T17:52:50Z</time>
      </trkpt><trkpt lat="55.5508820" lon="8.1141670"><ele>6.6</ele>
        <time>2026-08-05T17:53:02Z</time>
      </trkpt><trkpt lat="55.5508050" lon="8.1140360"><ele>6.5</ele>
        <time>2026-08-05T17:53:09Z</time>
      </trkpt><trkpt lat="55.5507010" lon="8.1139190"><ele>6.4</ele>
        <time>2026-08-05T17:53:15Z</time>
      </trkpt><trkpt lat="55.5506390" lon="8.1137830"><ele>6.3</ele>
        <time>2026-08-05T17:53:20Z</time>
      </trkpt><trkpt lat="55.5505680" lon="8.1136350"><ele>6.3</ele>
        <time>2026-08-05T17:53:27Z</time>
      </trkpt><trkpt lat="55.5504630" lon="8.1133630"><ele>6.1</ele>
        <time>2026-08-05T17:53:39Z</time>
      </trkpt><trkpt lat="55.5503500" lon="8.1130870"><ele>6.0</ele>
        <time>2026-08-05T17:53:51Z</time>
      </trkpt><trkpt lat="55.5502480" lon="8.1128030"><ele>5.9</ele>
        <time>2026-08-05T17:54:03Z</time>
      </trkpt><trkpt lat="55.5501420" lon="8.1125200"><ele>5.7</ele>
        <time>2026-08-05T17:54:16Z</time>
      </trkpt><trkpt lat="55.5500190" lon="8.1122400"><ele>5.5</ele>
        <time>2026-08-05T17:54:29Z</time>
      </trkpt><trkpt lat="55.5498760" lon="8.1120600"><ele>5.2</ele>
        <time>2026-08-05T17:54:43Z</time>
      </trkpt><trkpt lat="55.5497900" lon="8.1119960"><ele>5.0</ele>
        <time>2026-08-05T17:54:58Z</time>
      </trkpt><trkpt lat="55.5496910" lon="8.1119730"><ele>4.8</ele>
        <time>2026-08-05T17:55:03Z</time>
      </trkpt><trkpt lat="55.5495000" lon="8.1118660"><ele>4.4</ele>
        <time>2026-08-05T17:55:18Z</time>
      </trkpt><trkpt lat="55.5493170" lon="8.1117770"><ele>4.0</ele>
        <time>2026-08-05T17:55:33Z</time>
      </trkpt><trkpt lat="55.5492190" lon="8.1116890"><ele>3.8</ele>
        <time>2026-08-05T17:55:41Z</time>
      </trkpt><trkpt lat="55.5490800" lon="8.1114720"><ele>3.4</ele>
        <time>2026-08-05T17:55:54Z</time>
      </trkpt><trkpt lat="55.5489410" lon="8.1112560"><ele>3.1</ele>
        <time>2026-08-05T17:56:08Z</time>
      </trkpt><trkpt lat="55.5488930" lon="8.1110920"><ele>2.9</ele>
        <time>2026-08-05T17:56:15Z</time>
      </trkpt><trkpt lat="55.5488270" lon="8.1107080"><ele>2.4</ele>
        <time>2026-08-05T17:56:51Z</time>
      </trkpt><trkpt lat="55.5487680" lon="8.1103890"><ele>2.1</ele>
        <time>2026-08-05T17:57:04Z</time>
      </trkpt><trkpt lat="55.5487660" lon="8.1102280"><ele>2.0</ele>
        <time>2026-08-05T17:57:10Z</time>
      </trkpt><trkpt lat="55.5488000" lon="8.1098840"><ele>1.9</ele>
        <time>2026-08-05T17:57:22Z</time>
      </trkpt><trkpt lat="55.5487930" lon="8.1095500"><ele>1.8</ele>
        <time>2026-08-05T17:57:34Z</time>
      </trkpt><trkpt lat="55.5488080" lon="8.1092080"><ele>1.6</ele>
        <time>2026-08-05T17:57:47Z</time>
      </trkpt><trkpt lat="55.5488370" lon="8.1090380"><ele>1.5</ele>
        <time>2026-08-05T17:57:53Z</time>
      </trkpt><trkpt lat="55.5489150" lon="8.1086960"><ele>1.4</ele>
        <time>2026-08-05T17:58:19Z</time>
      </trkpt><trkpt lat="55.5490100" lon="8.1083980"><ele>1.2</ele>
        <time>2026-08-05T17:58:32Z</time>
      </trkpt><trkpt lat="55.5490720" lon="8.1080620"><ele>1.1</ele>
        <time>2026-08-05T17:58:44Z</time>
      </trkpt><trkpt lat="55.5491490" lon="8.1077550"><ele>1.0</ele>
        <time>2026-08-05T17:58:56Z</time>
      </trkpt><trkpt lat="55.5491860" lon="8.1074200"><ele>0.8</ele>
        <time>2026-08-05T17:59:08Z</time>
      </trkpt><trkpt lat="55.5492250" lon="8.1072610"><ele>0.8</ele>
        <time>2026-08-05T17:59:14Z</time>
      </trkpt><trkpt lat="55.5492950" lon="8.1069440"><ele>0.8</ele>
        <time>2026-08-05T17:59:27Z</time>
      </trkpt><trkpt lat="55.5493080" lon="8.1067770"><ele>0.9</ele>
        <time>2026-08-05T17:59:33Z</time>
      </trkpt><trkpt lat="55.5493710" lon="8.1064480"><ele>0.9</ele>
        <time>2026-08-05T17:59:45Z</time>
      </trkpt><trkpt lat="55.5494340" lon="8.1061160"><ele>0.9</ele>
        <time>2026-08-05T17:59:58Z</time>
      </trkpt><trkpt lat="55.5494580" lon="8.1057800"><ele>0.9</ele>
        <time>2026-08-05T18:00:10Z</time>
      </trkpt><trkpt lat="55.5495010" lon="8.1056190"><ele>0.9</ele>
        <time>2026-08-05T18:00:17Z</time>
      </trkpt><trkpt lat="55.5495590" lon="8.1053000"><ele>0.9</ele>
        <time>2026-08-05T18:00:29Z</time>
      </trkpt><trkpt lat="55.5496110" lon="8.1051670"><ele>0.9</ele>
        <time>2026-08-05T18:00:40Z</time>
      </trkpt><trkpt lat="55.5496310" lon="8.1050020"><ele>0.9</ele>
        <time>2026-08-05T18:00:45Z</time>
      </trkpt><trkpt lat="55.5496700" lon="8.1048490"><ele>0.9</ele>
        <time>2026-08-05T18:00:51Z</time>
      </trkpt><trkpt lat="55.5497390" lon="8.1045350"><ele>0.9</ele>
        <time>2026-08-05T18:01:03Z</time>
      </trkpt><trkpt lat="55.5497970" lon="8.1042280"><ele>1.0</ele>
        <time>2026-08-05T18:01:15Z</time>
      </trkpt><trkpt lat="55.5498580" lon="8.1039160"><ele>1.0</ele>
        <time>2026-08-05T18:01:28Z</time>
      </trkpt><trkpt lat="55.5499190" lon="8.1035900"><ele>1.1</ele>
        <time>2026-08-05T18:01:40Z</time>
      </trkpt><trkpt lat="55.5500010" lon="8.1032700"><ele>1.1</ele>
        <time>2026-08-05T18:01:52Z</time>
      </trkpt><trkpt lat="55.5500780" lon="8.1029620"><ele>1.2</ele>
        <time>2026-08-05T18:02:03Z</time>
      </trkpt><trkpt lat="55.5501610" lon="8.1026390"><ele>1.2</ele>
        <time>2026-08-05T18:02:15Z</time>
      </trkpt><trkpt lat="55.5501800" lon="8.1024690"><ele>1.2</ele>
        <time>2026-08-05T18:02:21Z</time>
      </trkpt><trkpt lat="55.5502290" lon="8.1023310"><ele>1.3</ele>
        <time>2026-08-05T18:02:27Z</time>
      </trkpt><trkpt lat="55.5503050" lon="8.1020360"><ele>1.3</ele>
        <time>2026-08-05T18:02:39Z</time>
      </trkpt><trkpt lat="55.5503860" lon="8.1017330"><ele>1.4</ele>
        <time>2026-08-05T18:02:51Z</time>
      </trkpt><trkpt lat="55.5504560" lon="8.1014210"><ele>1.4</ele>
        <time>2026-08-05T18:03:03Z</time>
      </trkpt><trkpt lat="55.5505270" lon="8.1011130"><ele>1.3</ele>
        <time>2026-08-05T18:03:15Z</time>
      </trkpt><trkpt lat="55.5505830" lon="8.1007820"><ele>1.2</ele>
        <time>2026-08-05T18:03:27Z</time>
      </trkpt><trkpt lat="55.5506560" lon="8.1004560"><ele>1.1</ele>
        <time>2026-08-05T18:03:39Z</time>
      </trkpt><trkpt lat="55.5507400" lon="8.1001470"><ele>1.1</ele>
        <time>2026-08-05T18:03:51Z</time>
      </trkpt><trkpt lat="55.5508170" lon="8.0998300"><ele>1.0</ele>
        <time>2026-08-05T18:04:03Z</time>
      </trkpt><trkpt lat="55.5508600" lon="8.0995000"><ele>0.9</ele>
        <time>2026-08-05T18:04:16Z</time>
      </trkpt><trkpt lat="55.5509100" lon="8.0993500"><ele>0.9</ele>
        <time>2026-08-05T18:04:44Z</time>
      </trkpt><trkpt lat="55.5509890" lon="8.0990410"><ele>0.8</ele>
        <time>2026-08-05T18:04:57Z</time>
      </trkpt><trkpt lat="55.5510620" lon="8.0987290"><ele>0.7</ele>
        <time>2026-08-05T18:05:09Z</time>
      </trkpt><trkpt lat="55.5511200" lon="8.0983900"><ele>0.6</ele>
        <time>2026-08-05T18:05:21Z</time>
      </trkpt><trkpt lat="55.5511910" lon="8.0980750"><ele>0.6</ele>
        <time>2026-08-05T18:05:33Z</time>
      </trkpt><trkpt lat="55.5512720" lon="8.0977670"><ele>0.5</ele>
        <time>2026-08-05T18:05:45Z</time>
      </trkpt><trkpt lat="55.5513380" lon="8.0974330"><ele>0.5</ele>
        <time>2026-08-05T18:05:57Z</time>
      </trkpt><trkpt lat="55.5514150" lon="8.0971230"><ele>0.4</ele>
        <time>2026-08-05T18:06:09Z</time>
      </trkpt><trkpt lat="55.5514200" lon="8.0969600"><ele>0.4</ele>
        <time>2026-08-05T18:06:15Z</time>
      </trkpt><trkpt lat="55.5514470" lon="8.0967880"><ele>0.4</ele>
        <time>2026-08-05T18:06:22Z</time>
      </trkpt><trkpt lat="55.5515020" lon="8.0966470"><ele>0.4</ele>
        <time>2026-08-05T18:06:28Z</time>
      </trkpt><trkpt lat="55.5515280" lon="8.0964830"><ele>0.3</ele>
        <time>2026-08-05T18:06:34Z</time>
      </trkpt><trkpt lat="55.5515730" lon="8.0963340"><ele>0.3</ele>
        <time>2026-08-05T18:06:40Z</time>
      </trkpt><trkpt lat="55.5516490" lon="8.0960160"><ele>0.3</ele>
        <time>2026-08-05T18:06:52Z</time>
      </trkpt><trkpt lat="55.5517350" lon="8.0957010"><ele>0.2</ele>
        <time>2026-08-05T18:07:05Z</time>
      </trkpt><trkpt lat="55.5518040" lon="8.0953950"><ele>0.2</ele>
        <time>2026-08-05T18:07:17Z</time>
      </trkpt><trkpt lat="55.5518900" lon="8.0950870"><ele>0.2</ele>
        <time>2026-08-05T18:07:29Z</time>
      </trkpt><trkpt lat="55.5519710" lon="8.0947730"><ele>0.2</ele>
        <time>2026-08-05T18:07:42Z</time>
      </trkpt><trkpt lat="55.5520520" lon="8.0944790"><ele>0.2</ele>
        <time>2026-08-05T18:07:54Z</time>
      </trkpt><trkpt lat="55.5521490" lon="8.0941830"><ele>0.2</ele>
        <time>2026-08-05T18:08:07Z</time>
      </trkpt><trkpt lat="55.5522280" lon="8.0938790"><ele>0.2</ele>
        <time>2026-08-05T18:08:22Z</time>
      </trkpt><trkpt lat="55.5522850" lon="8.0935710"><ele>0.2</ele>
        <time>2026-08-05T18:08:34Z</time>
      </trkpt><trkpt lat="55.5523510" lon="8.0932740"><ele>0.2</ele>
        <time>2026-08-05T18:08:46Z</time>
      </trkpt><trkpt lat="55.5524220" lon="8.0929410"><ele>0.2</ele>
        <time>2026-08-05T18:08:59Z</time>
      </trkpt><trkpt lat="55.5524910" lon="8.0926160"><ele>0.2</ele>
        <time>2026-08-05T18:09:11Z</time>
      </trkpt><trkpt lat="55.5526050" lon="8.0923570"><ele>0.3</ele>
        <time>2026-08-05T18:09:23Z</time>
      </trkpt><trkpt lat="55.5526360" lon="8.0922030"><ele>0.3</ele>
        <time>2026-08-05T18:09:29Z</time>
      </trkpt><trkpt lat="55.5527080" lon="8.0919080"><ele>0.3</ele>
        <time>2026-08-05T18:09:41Z</time>
      </trkpt><trkpt lat="55.5527800" lon="8.0916050"><ele>0.4</ele>
        <time>2026-08-05T18:09:53Z</time>
      </trkpt><trkpt lat="55.5528650" lon="8.0912950"><ele>0.4</ele>
        <time>2026-08-05T18:10:06Z</time>
      </trkpt><trkpt lat="55.5529420" lon="8.0909910"><ele>0.5</ele>
        <time>2026-08-05T18:10:18Z</time>
      </trkpt><trkpt lat="55.5530200" lon="8.0906710"><ele>0.5</ele>
        <time>2026-08-05T18:10:31Z</time>
      </trkpt><trkpt lat="55.5530880" lon="8.0903700"><ele>0.5</ele>
        <time>2026-08-05T18:10:43Z</time>
      </trkpt><trkpt lat="55.5531870" lon="8.0900440"><ele>0.6</ele>
        <time>2026-08-05T18:10:57Z</time>
      </trkpt><trkpt lat="55.5532700" lon="8.0897520"><ele>0.6</ele>
        <time>2026-08-05T18:11:09Z</time>
      </trkpt><trkpt lat="55.5533470" lon="8.0894340"><ele>0.7</ele>
        <time>2026-08-05T18:11:22Z</time>
      </trkpt><trkpt lat="55.5534250" lon="8.0891260"><ele>0.7</ele>
        <time>2026-08-05T18:11:35Z</time>
      </trkpt><trkpt lat="55.5535210" lon="8.0888180"><ele>0.7</ele>
        <time>2026-08-05T18:11:48Z</time>
      </trkpt><trkpt lat="55.5535990" lon="8.0884950"><ele>0.8</ele>
        <time>2026-08-05T18:12:01Z</time>
      </trkpt><trkpt lat="55.5536890" lon="8.0881740"><ele>0.8</ele>
        <time>2026-08-05T18:12:14Z</time>
      </trkpt><trkpt lat="55.5537070" lon="8.0880170"><ele>0.8</ele>
        <time>2026-08-05T18:12:20Z</time>
      </trkpt><trkpt lat="55.5537570" lon="8.0878540"><ele>0.9</ele>
        <time>2026-08-05T18:12:27Z</time>
      </trkpt><trkpt lat="55.5538440" lon="8.0875200"><ele>0.9</ele>
        <time>2026-08-05T18:12:47Z</time>
      </trkpt><trkpt lat="55.5539260" lon="8.0872120"><ele>1.0</ele>
        <time>2026-08-05T18:13:00Z</time>
      </trkpt><trkpt lat="55.5540190" lon="8.0868900"><ele>1.2</ele>
        <time>2026-08-05T18:13:14Z</time>
      </trkpt><trkpt lat="55.5541140" lon="8.0865920"><ele>1.8</ele>
        <time>2026-08-05T18:13:27Z</time>
      </trkpt><trkpt lat="55.5541840" lon="8.0864860"><ele>2.0</ele>
        <time>2026-08-05T18:13:33Z</time>
      </trkpt><trkpt lat="55.5543440" lon="8.0863180"><ele>2.6</ele>
        <time>2026-08-05T18:13:45Z</time>
      </trkpt><trkpt lat="55.5545120" lon="8.0861850"><ele>3.1</ele>
        <time>2026-08-05T18:13:57Z</time>
      </trkpt><trkpt lat="55.5545850" lon="8.0860880"><ele>3.3</ele>
        <time>2026-08-05T18:14:03Z</time>
      </trkpt><trkpt lat="55.5546750" lon="8.0860360"><ele>3.6</ele>
        <time>2026-08-05T18:14:09Z</time>
      </trkpt><trkpt lat="55.5548650" lon="8.0859370"><ele>4.1</ele>
        <time>2026-08-05T18:14:21Z</time>
      </trkpt><trkpt lat="55.5550550" lon="8.0859540"><ele>4.7</ele>
        <time>2026-08-05T18:14:39Z</time>
      </trkpt><trkpt lat="55.5551790" lon="8.0860090"><ele>5.0</ele>
        <time>2026-08-05T18:15:10Z</time>
      </trkpt><trkpt lat="55.5553600" lon="8.0859950"><ele>5.6</ele>
        <time>2026-08-05T18:15:28Z</time>
      </trkpt><trkpt lat="55.5554520" lon="8.0860320"><ele>5.8</ele>
        <time>2026-08-05T18:15:36Z</time>
      </trkpt><trkpt lat="55.5555450" lon="8.0860050"><ele>6.0</ele>
        <time>2026-08-05T18:15:43Z</time>
      </trkpt><trkpt lat="55.5557430" lon="8.0859290"><ele>6.2</ele>
        <time>2026-08-05T18:15:59Z</time>
      </trkpt><trkpt lat="55.5559320" lon="8.0858610"><ele>6.4</ele>
        <time>2026-08-05T18:16:12Z</time>
      </trkpt><trkpt lat="55.5560120" lon="8.0857300"><ele>6.5</ele>
        <time>2026-08-05T18:16:19Z</time>
      </trkpt><trkpt lat="55.5561590" lon="8.0855170"><ele>6.6</ele>
        <time>2026-08-05T18:16:32Z</time>
      </trkpt><trkpt lat="55.5563030" lon="8.0853090"><ele>6.8</ele>
        <time>2026-08-05T18:16:46Z</time>
      </trkpt><trkpt lat="55.5564610" lon="8.0854230"><ele>6.9</ele>
        <time>2026-08-05T18:18:23Z</time>
      </trkpt><trkpt lat="55.5566500" lon="8.0855420"><ele>7.1</ele>
        <time>2026-08-05T18:18:36Z</time>
      </trkpt><trkpt lat="55.5568430" lon="8.0855940"><ele>7.3</ele>
        <time>2026-08-05T18:18:48Z</time>
      </trkpt><trkpt lat="55.5570350" lon="8.0856910"><ele>7.5</ele>
        <time>2026-08-05T18:19:00Z</time>
      </trkpt><trkpt lat="55.5571330" lon="8.0857000"><ele>7.5</ele>
        <time>2026-08-05T18:19:06Z</time>
      </trkpt><trkpt lat="55.5572020" lon="8.0855960"><ele>7.7</ele>
        <time>2026-08-05T18:19:12Z</time>
      </trkpt><trkpt lat="55.5573430" lon="8.0853680"><ele>8.0</ele>
        <time>2026-08-05T18:19:36Z</time>
      </trkpt><trkpt lat="55.5574210" lon="8.0852900"><ele>8.1</ele>
        <time>2026-08-05T18:19:47Z</time>
      </trkpt><trkpt lat="55.5573350" lon="8.0852370"><ele>8.3</ele>
        <time>2026-08-05T18:20:29Z</time>
      </trkpt><trkpt lat="55.5572360" lon="8.0852510"><ele>8.4</ele>
        <time>2026-08-05T18:20:42Z</time>
      </trkpt><trkpt lat="55.5572000" lon="8.0851010"><ele>8.6</ele>
        <time>2026-08-05T18:20:50Z</time>
      </trkpt><trkpt lat="55.5572000" lon="8.0849330"><ele>8.7</ele>
        <time>2026-08-05T18:21:00Z</time>
      </trkpt><trkpt lat="55.5572200" lon="8.0845810"><ele>9.1</ele>
        <time>2026-08-05T18:21:14Z</time>
      </trkpt><trkpt lat="55.5572180" lon="8.0842260"><ele>9.4</ele>
        <time>2026-08-05T18:21:28Z</time>
      </trkpt><trkpt lat="55.5572680" lon="8.0840920"><ele>9.5</ele>
        <time>2026-08-05T18:21:34Z</time>
      </trkpt><trkpt lat="55.5573350" lon="8.0839830"><ele>9.7</ele>
        <time>2026-08-05T18:21:39Z</time>
      </trkpt><trkpt lat="55.5574190" lon="8.0839150"><ele>9.8</ele>
        <time>2026-08-05T18:21:48Z</time>
      </trkpt><trkpt lat="55.5573360" lon="8.0840300"><ele>10.0</ele>
        <time>2026-08-05T18:22:13Z</time>
      </trkpt><trkpt lat="55.5573480" lon="8.0842490"><ele>10.3</ele>
        <time>2026-08-05T18:23:00Z</time>
      </trkpt><trkpt lat="55.5574400" lon="8.0842300"><ele>10.4</ele>
        <time>2026-08-05T18:23:07Z</time>
      </trkpt><trkpt lat="55.5575320" lon="8.0842860"><ele>10.5</ele>
        <time>2026-08-05T18:23:13Z</time>
      </trkpt><trkpt lat="55.5576300" lon="8.0842730"><ele>10.6</ele>
        <time>2026-08-05T18:23:29Z</time>
      </trkpt><trkpt lat="55.5578310" lon="8.0842520"><ele>10.7</ele>
        <time>2026-08-05T18:23:42Z</time>
      </trkpt><trkpt lat="55.5579180" lon="8.0842060"><ele>10.7</ele>
        <time>2026-08-05T18:23:47Z</time>
      </trkpt><trkpt lat="55.5579990" lon="8.0841170"><ele>10.8</ele>
        <time>2026-08-05T18:23:53Z</time>
      </trkpt><trkpt lat="55.5581550" lon="8.0838990"><ele>10.9</ele>
        <time>2026-08-05T18:24:08Z</time>
      </trkpt><trkpt lat="55.5583160" lon="8.0837460"><ele>11.0</ele>
        <time>2026-08-05T18:24:44Z</time>
      </trkpt><trkpt lat="55.5583780" lon="8.0836030"><ele>11.1</ele>
        <time>2026-08-05T18:24:55Z</time>
      </trkpt><trkpt lat="55.5583390" lon="8.0834570"><ele>11.1</ele>
        <time>2026-08-05T18:25:13Z</time>
      </trkpt><trkpt lat="55.5583310" lon="8.0832300"><ele>11.2</ele>
        <time>2026-08-05T18:25:47Z</time>
      </trkpt><trkpt lat="55.5583900" lon="8.0829250"><ele>11.3</ele>
        <time>2026-08-05T18:26:04Z</time>
      </trkpt><trkpt lat="55.5584840" lon="8.0826270"><ele>11.4</ele>
        <time>2026-08-05T18:27:03Z</time>
      </trkpt><trkpt lat="55.5585670" lon="8.0823250"><ele>11.1</ele>
        <time>2026-08-05T18:27:19Z</time>
      </trkpt><trkpt lat="55.5586430" lon="8.0820270"><ele>10.4</ele>
        <time>2026-08-05T18:27:52Z</time>
      </trkpt><trkpt lat="55.5586980" lon="8.0817110"><ele>9.6</ele>
        <time>2026-08-05T18:28:04Z</time>
      </trkpt><trkpt lat="55.5587300" lon="8.0813800"><ele>8.9</ele>
        <time>2026-08-05T18:28:18Z</time>
      </trkpt><trkpt lat="55.5587910" lon="8.0810520"><ele>8.1</ele>
        <time>2026-08-05T18:28:43Z</time>
      </trkpt><trkpt lat="55.5588540" lon="8.0807180"><ele>7.3</ele>
        <time>2026-08-05T18:28:58Z</time>
      </trkpt><trkpt lat="55.5588330" lon="8.0805380"><ele>6.8</ele>
        <time>2026-08-05T18:29:05Z</time>
      </trkpt><trkpt lat="55.5588340" lon="8.0803580"><ele>6.4</ele>
        <time>2026-08-05T18:29:13Z</time>
      </trkpt><trkpt lat="55.5588280" lon="8.0800180"><ele>5.6</ele>
        <time>2026-08-05T18:29:28Z</time>
      </trkpt><trkpt lat="55.5588010" lon="8.0796740"><ele>4.8</ele>
        <time>2026-08-05T18:29:42Z</time>
      </trkpt><trkpt lat="55.5588180" lon="8.0795070"><ele>4.4</ele>
        <time>2026-08-05T18:29:49Z</time>
      </trkpt><trkpt lat="55.5588380" lon="8.0790770"><ele>3.8</ele>
        <time>2026-08-05T18:30:34Z</time>
      </trkpt><trkpt lat="55.5588080" lon="8.0789240"><ele>3.6</ele>
        <time>2026-08-05T18:30:46Z</time>
      </trkpt><trkpt lat="55.5587450" lon="8.0785820"><ele>3.1</ele>
        <time>2026-08-05T18:31:07Z</time>
      </trkpt><trkpt lat="55.5587450" lon="8.0784170"><ele>2.9</ele>
        <time>2026-08-05T18:31:14Z</time>
      </trkpt><trkpt lat="55.5587050" lon="8.0782240"><ele>2.7</ele>
        <time>2026-08-05T18:32:05Z</time>
      </trkpt><trkpt lat="55.5586690" lon="8.0778980"><ele>2.3</ele>
        <time>2026-08-05T18:32:18Z</time>
      </trkpt><trkpt lat="55.5586900" lon="8.0775670"><ele>1.8</ele>
        <time>2026-08-05T18:32:31Z</time>
      </trkpt><trkpt lat="55.5587390" lon="8.0772250"><ele>1.4</ele>
        <time>2026-08-05T18:32:46Z</time>
      </trkpt><trkpt lat="55.5588090" lon="8.0770830"><ele>1.1</ele>
        <time>2026-08-05T18:32:53Z</time>
      </trkpt><trkpt lat="55.5589450" lon="8.0768400"><ele>0.7</ele>
        <time>2026-08-05T18:33:08Z</time>
      </trkpt><trkpt lat="55.5590990" lon="8.0765960"><ele>0.3</ele>
        <time>2026-08-05T18:33:23Z</time>
      </trkpt><trkpt lat="55.5592500" lon="8.0763850"><ele>0.1</ele>
        <time>2026-08-05T18:33:35Z</time>
      </trkpt><trkpt lat="55.5593950" lon="8.0761560"><ele>-0.0</ele>
        <time>2026-08-05T18:33:49Z</time>
      </trkpt><trkpt lat="55.5595100" lon="8.0758980"><ele>-0.1</ele>
        <time>2026-08-05T18:34:01Z</time>
      </trkpt><trkpt lat="55.5596330" lon="8.0756480"><ele>-0.2</ele>
        <time>2026-08-05T18:34:13Z</time>
      </trkpt><trkpt lat="55.5597650" lon="8.0754120"><ele>-0.4</ele>
        <time>2026-08-05T18:34:25Z</time>
      </trkpt><trkpt lat="55.5598650" lon="8.0753790"><ele>-0.4</ele>
        <time>2026-08-05T18:34:38Z</time>
      </trkpt><trkpt lat="55.5600680" lon="8.0753650"><ele>-0.6</ele>
        <time>2026-08-05T18:34:51Z</time>
      </trkpt><trkpt lat="55.5602720" lon="8.0753670"><ele>-0.7</ele>
        <time>2026-08-05T18:35:03Z</time>
      </trkpt><trkpt lat="55.5604640" lon="8.0753700"><ele>-0.8</ele>
        <time>2026-08-05T18:35:15Z</time>
      </trkpt><trkpt lat="55.5606690" lon="8.0753950"><ele>-0.9</ele>
        <time>2026-08-05T18:35:27Z</time>
      </trkpt><trkpt lat="55.5608690" lon="8.0753910"><ele>-0.6</ele>
        <time>2026-08-05T18:35:39Z</time>
      </trkpt><trkpt lat="55.5610680" lon="8.0754310"><ele>-0.4</ele>
        <time>2026-08-05T18:35:51Z</time>
      </trkpt><trkpt lat="55.5612630" lon="8.0754670"><ele>-0.2</ele>
        <time>2026-08-05T18:36:03Z</time>
      </trkpt><trkpt lat="55.5614580" lon="8.0755020"><ele>0.0</ele>
        <time>2026-08-05T18:36:15Z</time>
      </trkpt><trkpt lat="55.5616470" lon="8.0755640"><ele>0.2</ele>
        <time>2026-08-05T18:36:27Z</time>
      </trkpt><trkpt lat="55.5618440" lon="8.0756160"><ele>0.5</ele>
        <time>2026-08-05T18:36:39Z</time>
      </trkpt><trkpt lat="55.5620390" lon="8.0756930"><ele>0.7</ele>
        <time>2026-08-05T18:36:51Z</time>
      </trkpt><trkpt lat="55.5622240" lon="8.0757580"><ele>0.9</ele>
        <time>2026-08-05T18:37:03Z</time>
      </trkpt><trkpt lat="55.5624130" lon="8.0758070"><ele>1.1</ele>
        <time>2026-08-05T18:37:15Z</time>
      </trkpt><trkpt lat="55.5626020" lon="8.0758790"><ele>1.1</ele>
        <time>2026-08-05T18:37:27Z</time>
      </trkpt><trkpt lat="55.5627960" lon="8.0759590"><ele>1.1</ele>
        <time>2026-08-05T18:37:40Z</time>
      </trkpt><trkpt lat="55.5629970" lon="8.0759990"><ele>1.1</ele>
        <time>2026-08-05T18:37:52Z</time>
      </trkpt><trkpt lat="55.5631800" lon="8.0760820"><ele>1.1</ele>
        <time>2026-08-05T18:38:05Z</time>
      </trkpt><trkpt lat="55.5633740" lon="8.0761230"><ele>1.1</ele>
        <time>2026-08-05T18:38:18Z</time>
      </trkpt><trkpt lat="55.5635590" lon="8.0761830"><ele>1.0</ele>
        <time>2026-08-05T18:38:36Z</time>
      </trkpt><trkpt lat="55.5637580" lon="8.0762700"><ele>1.0</ele>
        <time>2026-08-05T18:38:50Z</time>
      </trkpt><trkpt lat="55.5639450" lon="8.0763680"><ele>1.0</ele>
        <time>2026-08-05T18:39:03Z</time>
      </trkpt><trkpt lat="55.5641280" lon="8.0764850"><ele>1.0</ele>
        <time>2026-08-05T18:39:16Z</time>
      </trkpt><trkpt lat="55.5642180" lon="8.0764980"><ele>1.0</ele>
        <time>2026-08-05T18:39:22Z</time>
      </trkpt><trkpt lat="55.5643920" lon="8.0766100"><ele>0.9</ele>
        <time>2026-08-05T18:39:35Z</time>
      </trkpt><trkpt lat="55.5645710" lon="8.0767320"><ele>0.8</ele>
        <time>2026-08-05T18:39:48Z</time>
      </trkpt><trkpt lat="55.5647560" lon="8.0768650"><ele>0.8</ele>
        <time>2026-08-05T18:40:02Z</time>
      </trkpt><trkpt lat="55.5649360" lon="8.0769960"><ele>0.7</ele>
        <time>2026-08-05T18:40:15Z</time>
      </trkpt><trkpt lat="55.5651190" lon="8.0771030"><ele>0.6</ele>
        <time>2026-08-05T18:40:28Z</time>
      </trkpt><trkpt lat="55.5653000" lon="8.0772390"><ele>0.6</ele>
        <time>2026-08-05T18:40:41Z</time>
      </trkpt><trkpt lat="55.5654710" lon="8.0773660"><ele>0.5</ele>
        <time>2026-08-05T18:40:54Z</time>
      </trkpt><trkpt lat="55.5656340" lon="8.0775030"><ele>0.4</ele>
        <time>2026-08-05T18:41:11Z</time>
      </trkpt><trkpt lat="55.5658130" lon="8.0776490"><ele>0.3</ele>
        <time>2026-08-05T18:41:24Z</time>
      </trkpt><trkpt lat="55.5659900" lon="8.0777810"><ele>0.4</ele>
        <time>2026-08-05T18:41:38Z</time>
      </trkpt><trkpt lat="55.5661620" lon="8.0779030"><ele>0.4</ele>
        <time>2026-08-05T18:42:03Z</time>
      </trkpt><trkpt lat="55.5662430" lon="8.0780120"><ele>0.4</ele>
        <time>2026-08-05T18:42:10Z</time>
      </trkpt><trkpt lat="55.5663820" lon="8.0782720"><ele>0.5</ele>
        <time>2026-08-05T18:42:24Z</time>
      </trkpt><trkpt lat="55.5665240" lon="8.0784260"><ele>0.5</ele>
        <time>2026-08-05T18:42:46Z</time>
      </trkpt><trkpt lat="55.5667020" lon="8.0785450"><ele>0.5</ele>
        <time>2026-08-05T18:42:59Z</time>
      </trkpt><trkpt lat="55.5668750" lon="8.0786460"><ele>0.5</ele>
        <time>2026-08-05T18:43:11Z</time>
      </trkpt><trkpt lat="55.5670640" lon="8.0787740"><ele>0.6</ele>
        <time>2026-08-05T18:43:26Z</time>
      </trkpt><trkpt lat="55.5672320" lon="8.0789610"><ele>0.6</ele>
        <time>2026-08-05T18:43:39Z</time>
      </trkpt><trkpt lat="55.5673890" lon="8.0791910"><ele>0.6</ele>
        <time>2026-08-05T18:43:53Z</time>
      </trkpt><trkpt lat="55.5675290" lon="8.0794060"><ele>0.4</ele>
        <time>2026-08-05T18:44:06Z</time>
      </trkpt><trkpt lat="55.5676760" lon="8.0796400"><ele>0.2</ele>
        <time>2026-08-05T18:44:20Z</time>
      </trkpt><trkpt lat="55.5677660" lon="8.0796870"><ele>0.1</ele>
        <time>2026-08-05T18:44:27Z</time>
      </trkpt><trkpt lat="55.5679590" lon="8.0797750"><ele>-0.1</ele>
        <time>2026-08-05T18:44:42Z</time>
      </trkpt><trkpt lat="55.5681420" lon="8.0797660"><ele>-0.2</ele>
        <time>2026-08-05T18:44:54Z</time>
      </trkpt><trkpt lat="55.5683330" lon="8.0798220"><ele>-0.4</ele>
        <time>2026-08-05T18:45:06Z</time>
      </trkpt><trkpt lat="55.5685190" lon="8.0798770"><ele>-0.6</ele>
        <time>2026-08-05T18:45:18Z</time>
      </trkpt><trkpt lat="55.5687030" lon="8.0799930"><ele>-0.8</ele>
        <time>2026-08-05T18:45:32Z</time>
      </trkpt><trkpt lat="55.5688830" lon="8.0800850"><ele>-1.0</ele>
        <time>2026-08-05T18:45:44Z</time>
      </trkpt><trkpt lat="55.5690600" lon="8.0801850"><ele>-1.1</ele>
        <time>2026-08-05T18:45:56Z</time>
      </trkpt><trkpt lat="55.5692560" lon="8.0802170"><ele>-1.0</ele>
        <time>2026-08-05T18:46:09Z</time>
      </trkpt><trkpt lat="55.5694480" lon="8.0802690"><ele>-0.9</ele>
        <time>2026-08-05T18:46:22Z</time>
      </trkpt><trkpt lat="55.5696240" lon="8.0803780"><ele>-0.7</ele>
        <time>2026-08-05T18:46:34Z</time>
      </trkpt><trkpt lat="55.5697130" lon="8.0803150"><ele>-0.6</ele>
        <time>2026-08-05T18:46:40Z</time>
      </trkpt><trkpt lat="55.5698120" lon="8.0803850"><ele>-0.6</ele>
        <time>2026-08-05T18:47:22Z</time>
      </trkpt><trkpt lat="55.5699910" lon="8.0805140"><ele>-0.4</ele>
        <time>2026-08-05T18:47:34Z</time>
      </trkpt><trkpt lat="55.5700920" lon="8.0806200"><ele>-0.3</ele>
        <time>2026-08-05T18:47:54Z</time>
      </trkpt><trkpt lat="55.5702750" lon="8.0807320"><ele>-0.2</ele>
        <time>2026-08-05T18:48:06Z</time>
      </trkpt><trkpt lat="55.5704520" lon="8.0808650"><ele>-0.0</ele>
        <time>2026-08-05T18:48:18Z</time>
      </trkpt><trkpt lat="55.5706370" lon="8.0809990"><ele>0.1</ele>
        <time>2026-08-05T18:48:30Z</time>
      </trkpt><trkpt lat="55.5708070" lon="8.0811740"><ele>0.2</ele>
        <time>2026-08-05T18:48:42Z</time>
      </trkpt><trkpt lat="55.5709790" lon="8.0813500"><ele>0.2</ele>
        <time>2026-08-05T18:48:54Z</time>
      </trkpt><trkpt lat="55.5711570" lon="8.0814910"><ele>0.1</ele>
        <time>2026-08-05T18:49:06Z</time>
      </trkpt><trkpt lat="55.5713290" lon="8.0816170"><ele>0.1</ele>
        <time>2026-08-05T18:49:18Z</time>
      </trkpt><trkpt lat="55.5715080" lon="8.0817540"><ele>0.1</ele>
        <time>2026-08-05T18:49:31Z</time>
      </trkpt><trkpt lat="55.5716660" lon="8.0819320"><ele>0.1</ele>
        <time>2026-08-05T18:49:44Z</time>
      </trkpt><trkpt lat="55.5718390" lon="8.0821140"><ele>0.1</ele>
        <time>2026-08-05T18:49:58Z</time>
      </trkpt><trkpt lat="55.5720170" lon="8.0822360"><ele>0.1</ele>
        <time>2026-08-05T18:50:10Z</time>
      </trkpt><trkpt lat="55.5722000" lon="8.0823950"><ele>0.1</ele>
        <time>2026-08-05T18:50:24Z</time>
      </trkpt><trkpt lat="55.5723880" lon="8.0825040"><ele>0.0</ele>
        <time>2026-08-05T18:50:37Z</time>
      </trkpt><trkpt lat="55.5725780" lon="8.0826390"><ele>0.0</ele>
        <time>2026-08-05T18:50:50Z</time>
      </trkpt><trkpt lat="55.5727530" lon="8.0827900"><ele>0.0</ele>
        <time>2026-08-05T18:51:02Z</time>
      </trkpt><trkpt lat="55.5729280" lon="8.0829100"><ele>0.0</ele>
        <time>2026-08-05T18:51:14Z</time>
      </trkpt><trkpt lat="55.5731080" lon="8.0830340"><ele>0.0</ele>
        <time>2026-08-05T18:51:27Z</time>
      </trkpt><trkpt lat="55.5732950" lon="8.0831650"><ele>0.0</ele>
        <time>2026-08-05T18:51:42Z</time>
      </trkpt><trkpt lat="55.5734720" lon="8.0832830"><ele>0.0</ele>
        <time>2026-08-05T18:51:54Z</time>
      </trkpt><trkpt lat="55.5736490" lon="8.0834150"><ele>0.0</ele>
        <time>2026-08-05T18:52:07Z</time>
      </trkpt><trkpt lat="55.5738240" lon="8.0835860"><ele>0.0</ele>
        <time>2026-08-05T18:52:21Z</time>
      </trkpt><trkpt lat="55.5740030" lon="8.0837130"><ele>-0.0</ele>
        <time>2026-08-05T18:52:35Z</time>
      </trkpt><trkpt lat="55.5740930" lon="8.0837390"><ele>-0.0</ele>
        <time>2026-08-05T18:52:41Z</time>
      </trkpt><trkpt lat="55.5742960" lon="8.0837780"><ele>-0.1</ele>
        <time>2026-08-05T18:52:55Z</time>
      </trkpt><trkpt lat="55.5744850" lon="8.0838170"><ele>-0.1</ele>
        <time>2026-08-05T18:53:17Z</time>
      </trkpt><trkpt lat="55.5745470" lon="8.0839490"><ele>-0.1</ele>
        <time>2026-08-05T18:53:40Z</time>
      </trkpt><trkpt lat="55.5746380" lon="8.0840150"><ele>-0.2</ele>
        <time>2026-08-05T18:53:47Z</time>
      </trkpt><trkpt lat="55.5748100" lon="8.0841810"><ele>-0.2</ele>
        <time>2026-08-05T18:54:00Z</time>
      </trkpt><trkpt lat="55.5749950" lon="8.0843250"><ele>-0.3</ele>
        <time>2026-08-05T18:54:13Z</time>
      </trkpt><trkpt lat="55.5751630" lon="8.0844940"><ele>-0.3</ele>
        <time>2026-08-05T18:54:25Z</time>
      </trkpt><trkpt lat="55.5753360" lon="8.0846220"><ele>-0.4</ele>
        <time>2026-08-05T18:54:37Z</time>
      </trkpt><trkpt lat="55.5755180" lon="8.0847460"><ele>-0.4</ele>
        <time>2026-08-05T18:54:49Z</time>
      </trkpt><trkpt lat="55.5756880" lon="8.0848550"><ele>-0.4</ele>
        <time>2026-08-05T18:55:01Z</time>
      </trkpt><trkpt lat="55.5759090" lon="8.0849330"><ele>-0.5</ele>
        <time>2026-08-05T18:55:52Z</time>
      </trkpt><trkpt lat="55.5759830" lon="8.0850310"><ele>-0.5</ele>
        <time>2026-08-05T18:56:05Z</time>
      </trkpt><trkpt lat="55.5761630" lon="8.0852200"><ele>-0.5</ele>
        <time>2026-08-05T18:56:19Z</time>
      </trkpt><trkpt lat="55.5762570" lon="8.0852740"><ele>-0.6</ele>
        <time>2026-08-05T18:56:26Z</time>
      </trkpt><trkpt lat="55.5764300" lon="8.0854390"><ele>-0.6</ele>
        <time>2026-08-05T18:56:38Z</time>
      </trkpt><trkpt lat="55.5765170" lon="8.0854780"><ele>-0.6</ele>
        <time>2026-08-05T18:56:44Z</time>
      </trkpt><trkpt lat="55.5766910" lon="8.0856060"><ele>-0.6</ele>
        <time>2026-08-05T18:56:56Z</time>
      </trkpt><trkpt lat="55.5768740" lon="8.0857190"><ele>-0.7</ele>
        <time>2026-08-05T18:57:08Z</time>
      </trkpt><trkpt lat="55.5770530" lon="8.0858340"><ele>-0.7</ele>
        <time>2026-08-05T18:57:19Z</time>
      </trkpt><trkpt lat="55.5772330" lon="8.0859540"><ele>-0.7</ele>
        <time>2026-08-05T18:57:31Z</time>
      </trkpt><trkpt lat="55.5773710" lon="8.0860760"><ele>-0.7</ele>
        <time>2026-08-05T18:58:06Z</time>
      </trkpt><trkpt lat="55.5775280" lon="8.0862350"><ele>-0.6</ele>
        <time>2026-08-05T18:58:18Z</time>
      </trkpt><trkpt lat="55.5777010" lon="8.0863670"><ele>-0.6</ele>
        <time>2026-08-05T18:58:31Z</time>
      </trkpt><trkpt lat="55.5778720" lon="8.0864980"><ele>-0.5</ele>
        <time>2026-08-05T18:58:43Z</time>
      </trkpt><trkpt lat="55.5780570" lon="8.0866060"><ele>-0.4</ele>
        <time>2026-08-05T18:58:56Z</time>
      </trkpt><trkpt lat="55.5782290" lon="8.0867230"><ele>-0.4</ele>
        <time>2026-08-05T18:59:08Z</time>
      </trkpt><trkpt lat="55.5784070" lon="8.0868450"><ele>-0.3</ele>
        <time>2026-08-05T18:59:20Z</time>
      </trkpt><trkpt lat="55.5785810" lon="8.0869830"><ele>-0.2</ele>
        <time>2026-08-05T18:59:31Z</time>
      </trkpt><trkpt lat="55.5787660" lon="8.0870850"><ele>-0.2</ele>
        <time>2026-08-05T18:59:43Z</time>
      </trkpt><trkpt lat="55.5789400" lon="8.0872020"><ele>-0.1</ele>
        <time>2026-08-05T18:59:55Z</time>
      </trkpt><trkpt lat="55.5791080" lon="8.0873370"><ele>-0.2</ele>
        <time>2026-08-05T19:00:07Z</time>
      </trkpt><trkpt lat="55.5792890" lon="8.0874330"><ele>-0.3</ele>
        <time>2026-08-05T19:00:20Z</time>
      </trkpt><trkpt lat="55.5794570" lon="8.0875610"><ele>-0.3</ele>
        <time>2026-08-05T19:00:32Z</time>
      </trkpt><trkpt lat="55.5796370" lon="8.0876830"><ele>-0.4</ele>
        <time>2026-08-05T19:00:44Z</time>
      </trkpt><trkpt lat="55.5798180" lon="8.0877950"><ele>-0.5</ele>
        <time>2026-08-05T19:00:56Z</time>
      </trkpt><trkpt lat="55.5800180" lon="8.0878880"><ele>-0.6</ele>
        <time>2026-08-05T19:01:09Z</time>
      </trkpt><trkpt lat="55.5802090" lon="8.0880010"><ele>-0.7</ele>
        <time>2026-08-05T19:01:21Z</time>
      </trkpt><trkpt lat="55.5803850" lon="8.0881210"><ele>-0.7</ele>
        <time>2026-08-05T19:01:32Z</time>
      </trkpt><trkpt lat="55.5805650" lon="8.0882230"><ele>-0.8</ele>
        <time>2026-08-05T19:01:44Z</time>
      </trkpt><trkpt lat="55.5807480" lon="8.0883630"><ele>-0.8</ele>
        <time>2026-08-05T19:01:56Z</time>
      </trkpt><trkpt lat="55.5809230" lon="8.0885130"><ele>-0.6</ele>
        <time>2026-08-05T19:02:08Z</time>
      </trkpt><trkpt lat="55.5811070" lon="8.0886140"><ele>-0.5</ele>
        <time>2026-08-05T19:02:20Z</time>
      </trkpt><trkpt lat="55.5812790" lon="8.0887560"><ele>-0.4</ele>
        <time>2026-08-05T19:02:33Z</time>
      </trkpt><trkpt lat="55.5814640" lon="8.0888390"><ele>-0.3</ele>
        <time>2026-08-05T19:02:45Z</time>
      </trkpt><trkpt lat="55.5816300" lon="8.0889750"><ele>-0.2</ele>
        <time>2026-08-05T19:02:57Z</time>
      </trkpt><trkpt lat="55.5818150" lon="8.0891010"><ele>-0.1</ele>
        <time>2026-08-05T19:03:10Z</time>
      </trkpt><trkpt lat="55.5820030" lon="8.0892550"><ele>0.1</ele>
        <time>2026-08-05T19:03:24Z</time>
      </trkpt><trkpt lat="55.5821850" lon="8.0893960"><ele>0.2</ele>
        <time>2026-08-05T19:03:37Z</time>
      </trkpt><trkpt lat="55.5823630" lon="8.0895450"><ele>0.2</ele>
        <time>2026-08-05T19:03:50Z</time>
      </trkpt><trkpt lat="55.5825500" lon="8.0896600"><ele>0.2</ele>
        <time>2026-08-05T19:04:03Z</time>
      </trkpt><trkpt lat="55.5827270" lon="8.0897550"><ele>0.2</ele>
        <time>2026-08-05T19:04:15Z</time>
      </trkpt><trkpt lat="55.5829120" lon="8.0898880"><ele>0.2</ele>
        <time>2026-08-05T19:04:29Z</time>
      </trkpt><trkpt lat="55.5830970" lon="8.0900540"><ele>0.1</ele>
        <time>2026-08-05T19:04:43Z</time>
      </trkpt><trkpt lat="55.5832760" lon="8.0901830"><ele>0.1</ele>
        <time>2026-08-05T19:05:04Z</time>
      </trkpt><trkpt lat="55.5834600" lon="8.0903070"><ele>0.1</ele>
        <time>2026-08-05T19:05:18Z</time>
      </trkpt><trkpt lat="55.5836280" lon="8.0904620"><ele>0.1</ele>
        <time>2026-08-05T19:05:31Z</time>
      </trkpt><trkpt lat="55.5837990" lon="8.0905980"><ele>0.0</ele>
        <time>2026-08-05T19:05:44Z</time>
      </trkpt><trkpt lat="55.5839660" lon="8.0907220"><ele>0.0</ele>
        <time>2026-08-05T19:05:56Z</time>
      </trkpt><trkpt lat="55.5841410" lon="8.0908760"><ele>0.1</ele>
        <time>2026-08-05T19:06:09Z</time>
      </trkpt><trkpt lat="55.5843110" lon="8.0910040"><ele>0.1</ele>
        <time>2026-08-05T19:06:21Z</time>
      </trkpt><trkpt lat="55.5844830" lon="8.0911380"><ele>0.2</ele>
        <time>2026-08-05T19:06:33Z</time>
      </trkpt><trkpt lat="55.5846720" lon="8.0912440"><ele>0.2</ele>
        <time>2026-08-05T19:06:46Z</time>
      </trkpt><trkpt lat="55.5848420" lon="8.0913700"><ele>0.2</ele>
        <time>2026-08-05T19:06:58Z</time>
      </trkpt><trkpt lat="55.5850200" lon="8.0914760"><ele>0.3</ele>
        <time>2026-08-05T19:07:10Z</time>
      </trkpt><trkpt lat="55.5851140" lon="8.0914880"><ele>0.3</ele>
        <time>2026-08-05T19:07:16Z</time>
      </trkpt><trkpt lat="55.5852920" lon="8.0915800"><ele>0.3</ele>
        <time>2026-08-05T19:07:28Z</time>
      </trkpt><trkpt lat="55.5854700" lon="8.0916960"><ele>0.4</ele>
        <time>2026-08-05T19:07:40Z</time>
      </trkpt><trkpt lat="55.5856410" lon="8.0918300"><ele>0.4</ele>
        <time>2026-08-05T19:07:52Z</time>
      </trkpt><trkpt lat="55.5858060" lon="8.0919750"><ele>0.5</ele>
        <time>2026-08-05T19:08:04Z</time>
      </trkpt><trkpt lat="55.5860010" lon="8.0920860"><ele>0.5</ele>
        <time>2026-08-05T19:08:18Z</time>
      </trkpt><trkpt lat="55.5861930" lon="8.0922040"><ele>0.5</ele>
        <time>2026-08-05T19:08:32Z</time>
      </trkpt><trkpt lat="55.5863680" lon="8.0922980"><ele>0.6</ele>
        <time>2026-08-05T19:08:44Z</time>
      </trkpt><trkpt lat="55.5865500" lon="8.0924210"><ele>0.6</ele>
        <time>2026-08-05T19:08:57Z</time>
      </trkpt><trkpt lat="55.5867270" lon="8.0925670"><ele>0.6</ele>
        <time>2026-08-05T19:09:10Z</time>
      </trkpt><trkpt lat="55.5869020" lon="8.0926920"><ele>0.7</ele>
        <time>2026-08-05T19:09:23Z</time>
      </trkpt><trkpt lat="55.5870850" lon="8.0928220"><ele>0.7</ele>
        <time>2026-08-05T19:09:36Z</time>
      </trkpt><trkpt lat="55.5872690" lon="8.0929430"><ele>0.8</ele>
        <time>2026-08-05T19:09:49Z</time>
      </trkpt><trkpt lat="55.5874570" lon="8.0930400"><ele>0.7</ele>
        <time>2026-08-05T19:10:02Z</time>
      </trkpt><trkpt lat="55.5876800" lon="8.0931360"><ele>0.6</ele>
        <time>2026-08-05T19:10:38Z</time>
      </trkpt><trkpt lat="55.5878710" lon="8.0932400"><ele>0.6</ele>
        <time>2026-08-05T19:10:52Z</time>
      </trkpt><trkpt lat="55.5880650" lon="8.0933630"><ele>0.5</ele>
        <time>2026-08-05T19:11:06Z</time>
      </trkpt><trkpt lat="55.5882510" lon="8.0934870"><ele>0.4</ele>
        <time>2026-08-05T19:11:19Z</time>
      </trkpt><trkpt lat="55.5884240" lon="8.0936060"><ele>0.4</ele>
        <time>2026-08-05T19:11:31Z</time>
      </trkpt><trkpt lat="55.5886000" lon="8.0937510"><ele>0.3</ele>
        <time>2026-08-05T19:11:44Z</time>
      </trkpt><trkpt lat="55.5887910" lon="8.0938890"><ele>0.3</ele>
        <time>2026-08-05T19:11:58Z</time>
      </trkpt><trkpt lat="55.5889600" lon="8.0940200"><ele>0.2</ele>
        <time>2026-08-05T19:12:10Z</time>
      </trkpt><trkpt lat="55.5891520" lon="8.0941640"><ele>0.1</ele>
        <time>2026-08-05T19:12:24Z</time>
      </trkpt><trkpt lat="55.5893440" lon="8.0942920"><ele>0.1</ele>
        <time>2026-08-05T19:12:38Z</time>
      </trkpt><trkpt lat="55.5895190" lon="8.0944170"><ele>0.0</ele>
        <time>2026-08-05T19:12:51Z</time>
      </trkpt><trkpt lat="55.5896960" lon="8.0944990"><ele>-0.0</ele>
        <time>2026-08-05T19:13:03Z</time>
      </trkpt><trkpt lat="55.5898720" lon="8.0946430"><ele>-0.1</ele>
        <time>2026-08-05T19:13:17Z</time>
      </trkpt><trkpt lat="55.5900540" lon="8.0947370"><ele>-0.2</ele>
        <time>2026-08-05T19:13:30Z</time>
      </trkpt><trkpt lat="55.5902450" lon="8.0948660"><ele>-0.2</ele>
        <time>2026-08-05T19:13:44Z</time>
      </trkpt><trkpt lat="55.5903020" lon="8.0950060"><ele>-0.3</ele>
        <time>2026-08-05T19:13:50Z</time>
      </trkpt><trkpt lat="55.5903950" lon="8.0949400"><ele>-0.3</ele>
        <time>2026-08-05T19:15:02Z</time>
      </trkpt><trkpt lat="55.5904900" lon="8.0949640"><ele>-0.3</ele>
        <time>2026-08-05T19:15:08Z</time>
      </trkpt><trkpt lat="55.5905650" lon="8.0950710"><ele>-0.3</ele>
        <time>2026-08-05T19:15:14Z</time>
      </trkpt><trkpt lat="55.5906560" lon="8.0951110"><ele>-0.3</ele>
        <time>2026-08-05T19:15:20Z</time>
      </trkpt><trkpt lat="55.5908350" lon="8.0952330"><ele>-0.3</ele>
        <time>2026-08-05T19:15:33Z</time>
      </trkpt><trkpt lat="55.5910110" lon="8.0953250"><ele>-0.3</ele>
        <time>2026-08-05T19:15:45Z</time>
      </trkpt><trkpt lat="55.5911980" lon="8.0954000"><ele>-0.3</ele>
        <time>2026-08-05T19:15:57Z</time>
      </trkpt><trkpt lat="55.5913780" lon="8.0955190"><ele>-0.2</ele>
        <time>2026-08-05T19:16:09Z</time>
      </trkpt><trkpt lat="55.5915480" lon="8.0956480"><ele>-0.2</ele>
        <time>2026-08-05T19:16:21Z</time>
      </trkpt><trkpt lat="55.5917260" lon="8.0957600"><ele>-0.2</ele>
        <time>2026-08-05T19:16:33Z</time>
      </trkpt><trkpt lat="55.5919180" lon="8.0958710"><ele>-0.2</ele>
        <time>2026-08-05T19:16:46Z</time>
      </trkpt><trkpt lat="55.5920890" lon="8.0960060"><ele>-0.1</ele>
        <time>2026-08-05T19:16:58Z</time>
      </trkpt><trkpt lat="55.5922650" lon="8.0961270"><ele>-0.1</ele>
        <time>2026-08-05T19:17:10Z</time>
      </trkpt><trkpt lat="55.5924400" lon="8.0962630"><ele>-0.0</ele>
        <time>2026-08-05T19:17:23Z</time>
      </trkpt><trkpt lat="55.5926240" lon="8.0963880"><ele>0.0</ele>
        <time>2026-08-05T19:17:37Z</time>
      </trkpt><trkpt lat="55.5928150" lon="8.0965210"><ele>0.1</ele>
        <time>2026-08-05T19:17:51Z</time>
      </trkpt><trkpt lat="55.5930070" lon="8.0966550"><ele>0.1</ele>
        <time>2026-08-05T19:18:05Z</time>
      </trkpt><trkpt lat="55.5931930" lon="8.0967850"><ele>0.2</ele>
        <time>2026-08-05T19:18:19Z</time>
      </trkpt><trkpt lat="55.5933790" lon="8.0969000"><ele>0.2</ele>
        <time>2026-08-05T19:18:33Z</time>
      </trkpt><trkpt lat="55.5935740" lon="8.0969980"><ele>0.3</ele>
        <time>2026-08-05T19:18:47Z</time>
      </trkpt><trkpt lat="55.5938260" lon="8.0971000"><ele>0.3</ele>
        <time>2026-08-05T19:19:17Z</time>
      </trkpt><trkpt lat="55.5939060" lon="8.0971870"><ele>0.4</ele>
        <time>2026-08-05T19:19:24Z</time>
      </trkpt><trkpt lat="55.5939950" lon="8.0972420"><ele>0.4</ele>
        <time>2026-08-05T19:19:31Z</time>
      </trkpt><trkpt lat="55.5941830" lon="8.0973620"><ele>0.4</ele>
        <time>2026-08-05T19:19:45Z</time>
      </trkpt><trkpt lat="55.5943770" lon="8.0974830"><ele>0.4</ele>
        <time>2026-08-05T19:19:59Z</time>
      </trkpt><trkpt lat="55.5945700" lon="8.0976200"><ele>0.4</ele>
        <time>2026-08-05T19:20:13Z</time>
      </trkpt><trkpt lat="55.5947600" lon="8.0977360"><ele>0.4</ele>
        <time>2026-08-05T19:20:26Z</time>
      </trkpt><trkpt lat="55.5949540" lon="8.0978580"><ele>0.4</ele>
        <time>2026-08-05T19:20:40Z</time>
      </trkpt><trkpt lat="55.5951410" lon="8.0979570"><ele>0.4</ele>
        <time>2026-08-05T19:20:53Z</time>
      </trkpt><trkpt lat="55.5953300" lon="8.0980690"><ele>0.4</ele>
        <time>2026-08-05T19:21:07Z</time>
      </trkpt><trkpt lat="55.5955150" lon="8.0981830"><ele>0.4</ele>
        <time>2026-08-05T19:21:21Z</time>
      </trkpt><trkpt lat="55.5957010" lon="8.0983040"><ele>0.4</ele>
        <time>2026-08-05T19:21:35Z</time>
      </trkpt><trkpt lat="55.5958810" lon="8.0984380"><ele>0.5</ele>
        <time>2026-08-05T19:21:49Z</time>
      </trkpt><trkpt lat="55.5960630" lon="8.0985520"><ele>0.5</ele>
        <time>2026-08-05T19:22:03Z</time>
      </trkpt><trkpt lat="55.5962460" lon="8.0986740"><ele>0.5</ele>
        <time>2026-08-05T19:22:18Z</time>
      </trkpt><trkpt lat="55.5964220" lon="8.0988140"><ele>0.6</ele>
        <time>2026-08-05T19:22:31Z</time>
      </trkpt><trkpt lat="55.5966110" lon="8.0989260"><ele>0.6</ele>
        <time>2026-08-05T19:22:45Z</time>
      </trkpt><trkpt lat="55.5967970" lon="8.0990370"><ele>0.7</ele>
        <time>2026-08-05T19:22:59Z</time>
      </trkpt><trkpt lat="55.5969770" lon="8.0991480"><ele>0.7</ele>
        <time>2026-08-05T19:23:13Z</time>
      </trkpt><trkpt lat="55.5971670" lon="8.0992380"><ele>0.7</ele>
        <time>2026-08-05T19:23:27Z</time>
      </trkpt><trkpt lat="55.5973540" lon="8.0993390"><ele>0.8</ele>
        <time>2026-08-05T19:23:41Z</time>
      </trkpt><trkpt lat="55.5975420" lon="8.0994530"><ele>0.8</ele>
        <time>2026-08-05T19:23:56Z</time>
      </trkpt><trkpt lat="55.5977340" lon="8.0995390"><ele>0.7</ele>
        <time>2026-08-05T19:24:10Z</time>
      </trkpt><trkpt lat="55.5979250" lon="8.0996700"><ele>0.7</ele>
        <time>2026-08-05T19:24:24Z</time>
      </trkpt><trkpt lat="55.5980240" lon="8.0996910"><ele>0.7</ele>
        <time>2026-08-05T19:24:31Z</time>
      </trkpt><trkpt lat="55.5982110" lon="8.0997630"><ele>0.7</ele>
        <time>2026-08-05T19:24:44Z</time>
      </trkpt><trkpt lat="55.5984050" lon="8.0998400"><ele>0.7</ele>
        <time>2026-08-05T19:24:57Z</time>
      </trkpt><trkpt lat="55.5985960" lon="8.0998610"><ele>0.7</ele>
        <time>2026-08-05T19:25:25Z</time>
      </trkpt><trkpt lat="55.5986870" lon="8.0999350"><ele>0.7</ele>
        <time>2026-08-05T19:25:31Z</time>
      </trkpt><trkpt lat="55.5988780" lon="8.1000550"><ele>0.7</ele>
        <time>2026-08-05T19:25:45Z</time>
      </trkpt><trkpt lat="55.5990610" lon="8.1001930"><ele>0.7</ele>
        <time>2026-08-05T19:26:00Z</time>
      </trkpt><trkpt lat="55.5992410" lon="8.1003140"><ele>0.6</ele>
        <time>2026-08-05T19:26:14Z</time>
      </trkpt><trkpt lat="55.5994300" lon="8.1004090"><ele>0.6</ele>
        <time>2026-08-05T19:26:28Z</time>
      </trkpt><trkpt lat="55.5996100" lon="8.1004980"><ele>0.6</ele>
        <time>2026-08-05T19:26:40Z</time>
      </trkpt><trkpt lat="55.5997940" lon="8.1006070"><ele>0.5</ele>
        <time>2026-08-05T19:26:54Z</time>
      </trkpt><trkpt lat="55.5999830" lon="8.1007110"><ele>0.5</ele>
        <time>2026-08-05T19:27:08Z</time>
      </trkpt><trkpt lat="55.6001650" lon="8.1008210"><ele>0.5</ele>
        <time>2026-08-05T19:27:22Z</time>
      </trkpt><trkpt lat="55.6003330" lon="8.1009700"><ele>0.5</ele>
        <time>2026-08-05T19:27:36Z</time>
      </trkpt><trkpt lat="55.6005150" lon="8.1011130"><ele>0.4</ele>
        <time>2026-08-05T19:27:50Z</time>
      </trkpt><trkpt lat="55.6006910" lon="8.1012260"><ele>0.4</ele>
        <time>2026-08-05T19:28:04Z</time>
      </trkpt><trkpt lat="55.6008890" lon="8.1013170"><ele>0.4</ele>
        <time>2026-08-05T19:28:19Z</time>
      </trkpt><trkpt lat="55.6010770" lon="8.1014270"><ele>0.4</ele>
        <time>2026-08-05T19:28:33Z</time>
      </trkpt><trkpt lat="55.6012670" lon="8.1015230"><ele>0.4</ele>
        <time>2026-08-05T19:28:47Z</time>
      </trkpt><trkpt lat="55.6014470" lon="8.1016240"><ele>0.4</ele>
        <time>2026-08-05T19:29:01Z</time>
      </trkpt><trkpt lat="55.6016260" lon="8.1017390"><ele>0.4</ele>
        <time>2026-08-05T19:29:15Z</time>
      </trkpt><trkpt lat="55.6018160" lon="8.1018550"><ele>0.4</ele>
        <time>2026-08-05T19:29:29Z</time>
      </trkpt><trkpt lat="55.6019970" lon="8.1019800"><ele>0.4</ele>
        <time>2026-08-05T19:29:43Z</time>
      </trkpt><trkpt lat="55.6021830" lon="8.1020730"><ele>0.4</ele>
        <time>2026-08-05T19:29:57Z</time>
      </trkpt><trkpt lat="55.6023690" lon="8.1021740"><ele>0.4</ele>
        <time>2026-08-05T19:30:11Z</time>
      </trkpt><trkpt lat="55.6025650" lon="8.1022610"><ele>0.4</ele>
        <time>2026-08-05T19:30:25Z</time>
      </trkpt><trkpt lat="55.6027500" lon="8.1023570"><ele>0.5</ele>
        <time>2026-08-05T19:30:39Z</time>
      </trkpt><trkpt lat="55.6029410" lon="8.1024630"><ele>0.5</ele>
        <time>2026-08-05T19:30:53Z</time>
      </trkpt><trkpt lat="55.6031320" lon="8.1025630"><ele>0.5</ele>
        <time>2026-08-05T19:31:07Z</time>
      </trkpt><trkpt lat="55.6033160" lon="8.1027090"><ele>0.6</ele>
        <time>2026-08-05T19:31:21Z</time>
      </trkpt><trkpt lat="55.6034870" lon="8.1028640"><ele>0.6</ele>
        <time>2026-08-05T19:31:35Z</time>
      </trkpt><trkpt lat="55.6036710" lon="8.1029800"><ele>0.6</ele>
        <time>2026-08-05T19:31:49Z</time>
      </trkpt><trkpt lat="55.6038600" lon="8.1030780"><ele>0.7</ele>
        <time>2026-08-05T19:32:03Z</time>
      </trkpt><trkpt lat="55.6040450" lon="8.1032130"><ele>0.7</ele>
        <time>2026-08-05T19:32:17Z</time>
      </trkpt><trkpt lat="55.6042270" lon="8.1033270"><ele>0.7</ele>
        <time>2026-08-05T19:32:31Z</time>
      </trkpt><trkpt lat="55.6044080" lon="8.1034560"><ele>0.7</ele>
        <time>2026-08-05T19:32:45Z</time>
      </trkpt><trkpt lat="55.6045970" lon="8.1035610"><ele>0.7</ele>
        <time>2026-08-05T19:32:59Z</time>
      </trkpt><trkpt lat="55.6047880" lon="8.1036450"><ele>0.6</ele>
        <time>2026-08-05T19:33:13Z</time>
      </trkpt><trkpt lat="55.6049780" lon="8.1037370"><ele>0.6</ele>
        <time>2026-08-05T19:33:27Z</time>
      </trkpt><trkpt lat="55.6051560" lon="8.1038410"><ele>0.6</ele>
        <time>2026-08-05T19:33:41Z</time>
      </trkpt><trkpt lat="55.6053620" lon="8.1039270"><ele>0.5</ele>
        <time>2026-08-05T19:33:55Z</time>
      </trkpt><trkpt lat="55.6055480" lon="8.1040150"><ele>0.5</ele>
        <time>2026-08-05T19:34:08Z</time>
      </trkpt><trkpt lat="55.6057260" lon="8.1041140"><ele>0.5</ele>
        <time>2026-08-05T19:34:21Z</time>
      </trkpt><trkpt lat="55.6059060" lon="8.1042290"><ele>0.5</ele>
        <time>2026-08-05T19:34:35Z</time>
      </trkpt><trkpt lat="55.6060850" lon="8.1043170"><ele>0.4</ele>
        <time>2026-08-05T19:34:47Z</time>
      </trkpt><trkpt lat="55.6062810" lon="8.1043960"><ele>0.4</ele>
        <time>2026-08-05T19:35:00Z</time>
      </trkpt><trkpt lat="55.6064720" lon="8.1045270"><ele>0.4</ele>
        <time>2026-08-05T19:35:14Z</time>
      </trkpt><trkpt lat="55.6066580" lon="8.1046820"><ele>0.4</ele>
        <time>2026-08-05T19:35:28Z</time>
      </trkpt><trkpt lat="55.6068310" lon="8.1047840"><ele>0.3</ele>
        <time>2026-08-05T19:35:40Z</time>
      </trkpt><trkpt lat="55.6070130" lon="8.1049120"><ele>0.3</ele>
        <time>2026-08-05T19:35:53Z</time>
      </trkpt><trkpt lat="55.6072030" lon="8.1050100"><ele>0.3</ele>
        <time>2026-08-05T19:36:06Z</time>
      </trkpt><trkpt lat="55.6073850" lon="8.1051030"><ele>0.3</ele>
        <time>2026-08-05T19:36:19Z</time>
      </trkpt><trkpt lat="55.6075730" lon="8.1052090"><ele>0.2</ele>
        <time>2026-08-05T19:36:32Z</time>
      </trkpt><trkpt lat="55.6077530" lon="8.1053000"><ele>0.3</ele>
        <time>2026-08-05T19:36:45Z</time>
      </trkpt><trkpt lat="55.6079360" lon="8.1054430"><ele>0.3</ele>
        <time>2026-08-05T19:36:59Z</time>
      </trkpt><trkpt lat="55.6081250" lon="8.1055550"><ele>0.4</ele>
        <time>2026-08-05T19:37:13Z</time>
      </trkpt><trkpt lat="55.6082870" lon="8.1057150"><ele>0.4</ele>
        <time>2026-08-05T19:37:27Z</time>
      </trkpt><trkpt lat="55.6084650" lon="8.1058260"><ele>0.5</ele>
        <time>2026-08-05T19:37:41Z</time>
      </trkpt><trkpt lat="55.6086510" lon="8.1059530"><ele>0.6</ele>
        <time>2026-08-05T19:37:56Z</time>
      </trkpt><trkpt lat="55.6088470" lon="8.1060420"><ele>0.6</ele>
        <time>2026-08-05T19:38:10Z</time>
      </trkpt><trkpt lat="55.6090370" lon="8.1061470"><ele>0.7</ele>
        <time>2026-08-05T19:38:27Z</time>
      </trkpt><trkpt lat="55.6092240" lon="8.1062400"><ele>0.7</ele>
        <time>2026-08-05T19:38:41Z</time>
      </trkpt><trkpt lat="55.6094240" lon="8.1063280"><ele>0.7</ele>
        <time>2026-08-05T19:38:56Z</time>
      </trkpt><trkpt lat="55.6095960" lon="8.1064550"><ele>0.7</ele>
        <time>2026-08-05T19:39:10Z</time>
      </trkpt><trkpt lat="55.6097740" lon="8.1065730"><ele>0.7</ele>
        <time>2026-08-05T19:39:24Z</time>
      </trkpt><trkpt lat="55.6099630" lon="8.1067040"><ele>0.8</ele>
        <time>2026-08-05T19:39:39Z</time>
      </trkpt><trkpt lat="55.6101520" lon="8.1067760"><ele>0.8</ele>
        <time>2026-08-05T19:39:53Z</time>
      </trkpt><trkpt lat="55.6102880" lon="8.1068090"><ele>0.8</ele>
        <time>2026-08-05T19:40:40Z</time>
      </trkpt><trkpt lat="55.6103730" lon="8.1068660"><ele>0.8</ele>
        <time>2026-08-05T19:40:46Z</time>
      </trkpt><trkpt lat="55.6105490" lon="8.1070030"><ele>0.8</ele>
        <time>2026-08-05T19:41:00Z</time>
      </trkpt><trkpt lat="55.6107200" lon="8.1071450"><ele>0.8</ele>
        <time>2026-08-05T19:41:14Z</time>
      </trkpt><trkpt lat="55.6109080" lon="8.1072340"><ele>0.8</ele>
        <time>2026-08-05T19:41:28Z</time>
      </trkpt><trkpt lat="55.6111030" lon="8.1073260"><ele>0.7</ele>
        <time>2026-08-05T19:41:42Z</time>
      </trkpt><trkpt lat="55.6112990" lon="8.1074000"><ele>0.7</ele>
        <time>2026-08-05T19:41:56Z</time>
      </trkpt><trkpt lat="55.6114930" lon="8.1074690"><ele>0.7</ele>
        <time>2026-08-05T19:42:10Z</time>
      </trkpt><trkpt lat="55.6116870" lon="8.1075560"><ele>0.6</ele>
        <time>2026-08-05T19:42:24Z</time>
      </trkpt><trkpt lat="55.6118740" lon="8.1076590"><ele>0.6</ele>
        <time>2026-08-05T19:42:38Z</time>
      </trkpt><trkpt lat="55.6120660" lon="8.1077530"><ele>0.6</ele>
        <time>2026-08-05T19:42:52Z</time>
      </trkpt><trkpt lat="55.6122540" lon="8.1078700"><ele>0.5</ele>
        <time>2026-08-05T19:43:06Z</time>
      </trkpt><trkpt lat="55.6124360" lon="8.1080120"><ele>0.5</ele>
        <time>2026-08-05T19:43:20Z</time>
      </trkpt><trkpt lat="55.6125410" lon="8.1080460"><ele>0.5</ele>
        <time>2026-08-05T19:43:27Z</time>
      </trkpt><trkpt lat="55.6127300" lon="8.1081610"><ele>0.4</ele>
        <time>2026-08-05T19:43:41Z</time>
      </trkpt><trkpt lat="55.6129200" lon="8.1082560"><ele>0.5</ele>
        <time>2026-08-05T19:43:55Z</time>
      </trkpt><trkpt lat="55.6131100" lon="8.1083790"><ele>0.5</ele>
        <time>2026-08-05T19:44:09Z</time>
      </trkpt><trkpt lat="55.6133040" lon="8.1084660"><ele>0.5</ele>
        <time>2026-08-05T19:44:29Z</time>
      </trkpt><trkpt lat="55.6134910" lon="8.1085460"><ele>0.5</ele>
        <time>2026-08-05T19:44:42Z</time>
      </trkpt><trkpt lat="55.6136820" lon="8.1086700"><ele>0.5</ele>
        <time>2026-08-05T19:44:55Z</time>
      </trkpt><trkpt lat="55.6138480" lon="8.1088380"><ele>0.5</ele>
        <time>2026-08-05T19:45:09Z</time>
      </trkpt><trkpt lat="55.6140300" lon="8.1089920"><ele>0.6</ele>
        <time>2026-08-05T19:45:23Z</time>
      </trkpt><trkpt lat="55.6142140" lon="8.1091210"><ele>0.6</ele>
        <time>2026-08-05T19:45:37Z</time>
      </trkpt><trkpt lat="55.6144070" lon="8.1092220"><ele>0.6</ele>
        <time>2026-08-05T19:45:51Z</time>
      </trkpt><trkpt lat="55.6144880" lon="8.1093010"><ele>0.6</ele>
        <time>2026-08-05T19:45:58Z</time>
      </trkpt><trkpt lat="55.6145890" lon="8.1093070"><ele>0.6</ele>
        <time>2026-08-05T19:46:05Z</time>
      </trkpt><trkpt lat="55.6146840" lon="8.1093600"><ele>0.6</ele>
        <time>2026-08-05T19:46:12Z</time>
      </trkpt><trkpt lat="55.6148700" lon="8.1094780"><ele>0.7</ele>
        <time>2026-08-05T19:46:26Z</time>
      </trkpt><trkpt lat="55.6150540" lon="8.1095790"><ele>0.7</ele>
        <time>2026-08-05T19:46:40Z</time>
      </trkpt><trkpt lat="55.6152330" lon="8.1096820"><ele>0.7</ele>
        <time>2026-08-05T19:46:53Z</time>
      </trkpt><trkpt lat="55.6154160" lon="8.1097700"><ele>0.7</ele>
        <time>2026-08-05T19:47:07Z</time>
      </trkpt><trkpt lat="55.6156000" lon="8.1098780"><ele>0.7</ele>
        <time>2026-08-05T19:47:21Z</time>
      </trkpt><trkpt lat="55.6157860" lon="8.1099950"><ele>0.7</ele>
        <time>2026-08-05T19:47:35Z</time>
      </trkpt><trkpt lat="55.6159750" lon="8.1101100"><ele>0.8</ele>
        <time>2026-08-05T19:47:49Z</time>
      </trkpt><trkpt lat="55.6161560" lon="8.1102100"><ele>0.8</ele>
        <time>2026-08-05T19:48:03Z</time>
      </trkpt><trkpt lat="55.6163370" lon="8.1103400"><ele>0.8</ele>
        <time>2026-08-05T19:48:17Z</time>
      </trkpt><trkpt lat="55.6165270" lon="8.1104380"><ele>0.8</ele>
        <time>2026-08-05T19:48:31Z</time>
      </trkpt><trkpt lat="55.6167210" lon="8.1105290"><ele>0.8</ele>
        <time>2026-08-05T19:48:44Z</time>
      </trkpt><trkpt lat="55.6169180" lon="8.1106460"><ele>0.8</ele>
        <time>2026-08-05T19:48:58Z</time>
      </trkpt><trkpt lat="55.6171010" lon="8.1107450"><ele>0.8</ele>
        <time>2026-08-05T19:49:11Z</time>
      </trkpt><trkpt lat="55.6172720" lon="8.1108660"><ele>0.8</ele>
        <time>2026-08-05T19:49:24Z</time>
      </trkpt><trkpt lat="55.6174480" lon="8.1109830"><ele>0.8</ele>
        <time>2026-08-05T19:49:38Z</time>
      </trkpt><trkpt lat="55.6176310" lon="8.1111100"><ele>0.8</ele>
        <time>2026-08-05T19:49:52Z</time>
      </trkpt><trkpt lat="55.6178060" lon="8.1112340"><ele>0.8</ele>
        <time>2026-08-05T19:50:06Z</time>
      </trkpt><trkpt lat="55.6179860" lon="8.1113410"><ele>0.8</ele>
        <time>2026-08-05T19:50:20Z</time>
      </trkpt><trkpt lat="55.6181830" lon="8.1114360"><ele>0.7</ele>
        <time>2026-08-05T19:50:34Z</time>
      </trkpt><trkpt lat="55.6183780" lon="8.1115440"><ele>0.6</ele>
        <time>2026-08-05T19:50:48Z</time>
      </trkpt><trkpt lat="55.6185650" lon="8.1116430"><ele>0.5</ele>
        <time>2026-08-05T19:51:03Z</time>
      </trkpt><trkpt lat="55.6187410" lon="8.1117410"><ele>0.5</ele>
        <time>2026-08-05T19:51:20Z</time>
      </trkpt><trkpt lat="55.6189270" lon="8.1118460"><ele>0.4</ele>
        <time>2026-08-05T19:51:34Z</time>
      </trkpt><trkpt lat="55.6191110" lon="8.1119440"><ele>0.4</ele>
        <time>2026-08-05T19:51:48Z</time>
      </trkpt><trkpt lat="55.6192960" lon="8.1120620"><ele>0.3</ele>
        <time>2026-08-05T19:52:02Z</time>
      </trkpt><trkpt lat="55.6194720" lon="8.1121840"><ele>0.2</ele>
        <time>2026-08-05T19:52:16Z</time>
      </trkpt><trkpt lat="55.6196470" lon="8.1123300"><ele>0.2</ele>
        <time>2026-08-05T19:52:30Z</time>
      </trkpt><trkpt lat="55.6198330" lon="8.1124560"><ele>0.3</ele>
        <time>2026-08-05T19:52:44Z</time>
      </trkpt><trkpt lat="55.6200170" lon="8.1125630"><ele>0.3</ele>
        <time>2026-08-05T19:52:58Z</time>
      </trkpt><trkpt lat="55.6201880" lon="8.1126660"><ele>0.3</ele>
        <time>2026-08-05T19:53:11Z</time>
      </trkpt><trkpt lat="55.6203650" lon="8.1127930"><ele>0.3</ele>
        <time>2026-08-05T19:53:25Z</time>
      </trkpt><trkpt lat="55.6205530" lon="8.1128770"><ele>0.4</ele>
        <time>2026-08-05T19:53:39Z</time>
      </trkpt><trkpt lat="55.6207290" lon="8.1129800"><ele>0.4</ele>
        <time>2026-08-05T19:53:52Z</time>
      </trkpt><trkpt lat="55.6209100" lon="8.1131060"><ele>0.4</ele>
        <time>2026-08-05T19:54:06Z</time>
      </trkpt><trkpt lat="55.6210880" lon="8.1131970"><ele>0.4</ele>
        <time>2026-08-05T19:54:19Z</time>
      </trkpt><trkpt lat="55.6212650" lon="8.1133110"><ele>0.4</ele>
        <time>2026-08-05T19:54:33Z</time>
      </trkpt><trkpt lat="55.6214580" lon="8.1133990"><ele>0.5</ele>
        <time>2026-08-05T19:54:47Z</time>
      </trkpt><trkpt lat="55.6216290" lon="8.1135220"><ele>0.5</ele>
        <time>2026-08-05T19:55:01Z</time>
      </trkpt><trkpt lat="55.6218160" lon="8.1136360"><ele>0.5</ele>
        <time>2026-08-05T19:55:15Z</time>
      </trkpt><trkpt lat="55.6220030" lon="8.1137380"><ele>0.5</ele>
        <time>2026-08-05T19:55:29Z</time>
      </trkpt><trkpt lat="55.6221770" lon="8.1138620"><ele>0.5</ele>
        <time>2026-08-05T19:55:43Z</time>
      </trkpt><trkpt lat="55.6223690" lon="8.1139710"><ele>0.5</ele>
        <time>2026-08-05T19:55:57Z</time>
      </trkpt><trkpt lat="55.6225620" lon="8.1140650"><ele>0.6</ele>
        <time>2026-08-05T19:56:11Z</time>
      </trkpt><trkpt lat="55.6227500" lon="8.1141490"><ele>0.6</ele>
        <time>2026-08-05T19:56:25Z</time>
      </trkpt><trkpt lat="55.6229400" lon="8.1142620"><ele>0.6</ele>
        <time>2026-08-05T19:56:39Z</time>
      </trkpt><trkpt lat="55.6231310" lon="8.1143430"><ele>0.6</ele>
        <time>2026-08-05T19:56:53Z</time>
      </trkpt><trkpt lat="55.6233160" lon="8.1144290"><ele>0.6</ele>
        <time>2026-08-05T19:57:07Z</time>
      </trkpt><trkpt lat="55.6234970" lon="8.1145020"><ele>0.6</ele>
        <time>2026-08-05T19:57:21Z</time>
      </trkpt><trkpt lat="55.6236820" lon="8.1145810"><ele>0.6</ele>
        <time>2026-08-05T19:57:35Z</time>
      </trkpt><trkpt lat="55.6238700" lon="8.1146540"><ele>0.5</ele>
        <time>2026-08-05T19:57:49Z</time>
      </trkpt><trkpt lat="55.6240580" lon="8.1147180"><ele>0.5</ele>
        <time>2026-08-05T19:58:03Z</time>
      </trkpt><trkpt lat="55.6242400" lon="8.1148020"><ele>0.5</ele>
        <time>2026-08-05T19:58:17Z</time>
      </trkpt><trkpt lat="55.6244260" lon="8.1148720"><ele>0.5</ele>
        <time>2026-08-05T19:58:30Z</time>
      </trkpt><trkpt lat="55.6246070" lon="8.1149600"><ele>0.5</ele>
        <time>2026-08-05T19:58:44Z</time>
      </trkpt><trkpt lat="55.6246800" lon="8.1150530"><ele>0.6</ele>
        <time>2026-08-05T19:58:51Z</time>
      </trkpt><trkpt lat="55.6248420" lon="8.1152070"><ele>0.6</ele>
        <time>2026-08-05T19:59:13Z</time>
      </trkpt><trkpt lat="55.6249810" lon="8.1154380"><ele>0.7</ele>
        <time>2026-08-05T19:59:28Z</time>
      </trkpt><trkpt lat="55.6250290" lon="8.1155940"><ele>0.7</ele>
        <time>2026-08-05T19:59:36Z</time>
      </trkpt><trkpt lat="55.6251320" lon="8.1158840"><ele>0.8</ele>
        <time>2026-08-05T19:59:51Z</time>
      </trkpt><trkpt lat="55.6252450" lon="8.1161330"><ele>0.9</ele>
        <time>2026-08-05T20:00:08Z</time>
      </trkpt><trkpt lat="55.6253920" lon="8.1163480"><ele>0.9</ele>
        <time>2026-08-05T20:00:22Z</time>
      </trkpt><trkpt lat="55.6254820" lon="8.1164170"><ele>1.0</ele>
        <time>2026-08-05T20:00:29Z</time>
      </trkpt><trkpt lat="55.6256740" lon="8.1165380"><ele>1.0</ele>
        <time>2026-08-05T20:00:43Z</time>
      </trkpt><trkpt lat="55.6258680" lon="8.1166430"><ele>1.1</ele>
        <time>2026-08-05T20:00:59Z</time>
      </trkpt><trkpt lat="55.6260410" lon="8.1167680"><ele>1.2</ele>
        <time>2026-08-05T20:01:13Z</time>
      </trkpt><trkpt lat="55.6262130" lon="8.1168910"><ele>1.5</ele>
        <time>2026-08-05T20:01:29Z</time>
      </trkpt><trkpt lat="55.6263030" lon="8.1169030"><ele>1.6</ele>
        <time>2026-08-05T20:01:37Z</time>
      </trkpt><trkpt lat="55.6263950" lon="8.1169740"><ele>1.8</ele>
        <time>2026-08-05T20:01:45Z</time>
      </trkpt><trkpt lat="55.6265800" lon="8.1171260"><ele>2.1</ele>
        <time>2026-08-05T20:02:00Z</time>
      </trkpt><trkpt lat="55.6267350" lon="8.1173280"><ele>2.4</ele>
        <time>2026-08-05T20:02:14Z</time>
      </trkpt><trkpt lat="55.6268710" lon="8.1175760"><ele>2.6</ele>
        <time>2026-08-05T20:02:28Z</time>
      </trkpt><trkpt lat="55.6269830" lon="8.1178530"><ele>2.9</ele>
        <time>2026-08-05T20:02:42Z</time>
      </trkpt><trkpt lat="55.6271060" lon="8.1181260"><ele>3.2</ele>
        <time>2026-08-05T20:02:57Z</time>
      </trkpt><trkpt lat="55.6271410" lon="8.1182840"><ele>3.4</ele>
        <time>2026-08-05T20:03:04Z</time>
      </trkpt><trkpt lat="55.6271730" lon="8.1186310"><ele>3.7</ele>
        <time>2026-08-05T20:03:20Z</time>
      </trkpt><trkpt lat="55.6271680" lon="8.1188130"><ele>3.8</ele>
        <time>2026-08-05T20:03:28Z</time>
      </trkpt><trkpt lat="55.6271920" lon="8.1189840"><ele>4.0</ele>
        <time>2026-08-05T20:03:35Z</time>
      </trkpt><trkpt lat="55.6272150" lon="8.1193310"><ele>4.3</ele>
        <time>2026-08-05T20:03:52Z</time>
      </trkpt><trkpt lat="55.6272400" lon="8.1196610"><ele>4.6</ele>
        <time>2026-08-05T20:04:19Z</time>
      </trkpt><trkpt lat="55.6272420" lon="8.1199970"><ele>4.9</ele>
        <time>2026-08-05T20:04:33Z</time>
      </trkpt><trkpt lat="55.6272350" lon="8.1203440"><ele>5.2</ele>
        <time>2026-08-05T20:04:48Z</time>
      </trkpt><trkpt lat="55.6272280" lon="8.1206750"><ele>5.5</ele>
        <time>2026-08-05T20:05:02Z</time>
      </trkpt><trkpt lat="55.6272080" lon="8.1209990"><ele>5.8</ele>
        <time>2026-08-05T20:05:16Z</time>
      </trkpt><trkpt lat="55.6271690" lon="8.1211430"><ele>5.9</ele>
        <time>2026-08-05T20:05:23Z</time>
      </trkpt><trkpt lat="55.6270830" lon="8.1214420"><ele>6.2</ele>
        <time>2026-08-05T20:07:28Z</time>
      </trkpt><trkpt lat="55.6270470" lon="8.1217830"><ele>6.5</ele>
        <time>2026-08-05T20:07:42Z</time>
      </trkpt><trkpt lat="55.6270060" lon="8.1221270"><ele>6.7</ele>
        <time>2026-08-05T20:07:56Z</time>
      </trkpt><trkpt lat="55.6269680" lon="8.1224620"><ele>6.6</ele>
        <time>2026-08-05T20:08:10Z</time>
      </trkpt><trkpt lat="55.6269140" lon="8.1227890"><ele>6.5</ele>
        <time>2026-08-05T20:08:24Z</time>
      </trkpt><trkpt lat="55.6268280" lon="8.1231090"><ele>6.5</ele>
        <time>2026-08-05T20:08:39Z</time>
      </trkpt><trkpt lat="55.6267380" lon="8.1233990"><ele>6.4</ele>
        <time>2026-08-05T20:08:53Z</time>
      </trkpt><trkpt lat="55.6266630" lon="8.1235140"><ele>6.4</ele>
        <time>2026-08-05T20:08:59Z</time>
      </trkpt><trkpt lat="55.6265380" lon="8.1237680"><ele>6.4</ele>
        <time>2026-08-05T20:09:12Z</time>
      </trkpt><trkpt lat="55.6264210" lon="8.1240480"><ele>6.3</ele>
        <time>2026-08-05T20:09:28Z</time>
      </trkpt><trkpt lat="55.6263410" lon="8.1241630"><ele>6.3</ele>
        <time>2026-08-05T20:09:35Z</time>
      </trkpt><trkpt lat="55.6262180" lon="8.1244460"><ele>6.2</ele>
        <time>2026-08-05T20:09:51Z</time>
      </trkpt><trkpt lat="55.6260830" lon="8.1247190"><ele>6.2</ele>
        <time>2026-08-05T20:10:05Z</time>
      </trkpt><trkpt lat="55.6259750" lon="8.1249960"><ele>6.2</ele>
        <time>2026-08-05T20:10:19Z</time>
      </trkpt><trkpt lat="55.6258260" lon="8.1252360"><ele>6.2</ele>
        <time>2026-08-05T20:10:33Z</time>
      </trkpt><trkpt lat="55.6257140" lon="8.1255320"><ele>6.2</ele>
        <time>2026-08-05T20:10:47Z</time>
      </trkpt><trkpt lat="55.6256230" lon="8.1258630"><ele>6.3</ele>
        <time>2026-08-05T20:11:01Z</time>
      </trkpt><trkpt lat="55.6256470" lon="8.1260280"><ele>6.3</ele>
        <time>2026-08-05T20:11:10Z</time>
      </trkpt><trkpt lat="55.6257410" lon="8.1260770"><ele>6.3</ele>
        <time>2026-08-05T20:11:16Z</time>
      </trkpt><trkpt lat="55.6258250" lon="8.1261870"><ele>6.3</ele>
        <time>2026-08-05T20:11:23Z</time>
      </trkpt><trkpt lat="55.6257980" lon="8.1263650"><ele>6.3</ele>
        <time>2026-08-05T20:11:29Z</time>
      </trkpt><trkpt lat="55.6257470" lon="8.1265040"><ele>6.3</ele>
        <time>2026-08-05T20:11:35Z</time>
      </trkpt><trkpt lat="55.6256660" lon="8.1268060"><ele>6.3</ele>
        <time>2026-08-05T20:11:50Z</time>
      </trkpt><trkpt lat="55.6256530" lon="8.1269710"><ele>6.3</ele>
        <time>2026-08-05T20:11:58Z</time>
      </trkpt><trkpt lat="55.6256700" lon="8.1271430"><ele>6.3</ele>
        <time>2026-08-05T20:12:06Z</time>
      </trkpt><trkpt lat="55.6257220" lon="8.1274730"><ele>6.2</ele>
        <time>2026-08-05T20:12:23Z</time>
      </trkpt><trkpt lat="55.6257990" lon="8.1277850"><ele>6.1</ele>
        <time>2026-08-05T20:12:37Z</time>
      </trkpt><trkpt lat="55.6258640" lon="8.1281080"><ele>6.0</ele>
        <time>2026-08-05T20:12:51Z</time>
      </trkpt><trkpt lat="55.6259550" lon="8.1284150"><ele>5.8</ele>
        <time>2026-08-05T20:13:05Z</time>
      </trkpt><trkpt lat="55.6260690" lon="8.1286930"><ele>5.7</ele>
        <time>2026-08-05T20:13:19Z</time>
      </trkpt><trkpt lat="55.6261940" lon="8.1289770"><ele>5.6</ele>
        <time>2026-08-05T20:13:33Z</time>
      </trkpt><trkpt lat="55.6262920" lon="8.1292880"><ele>5.4</ele>
        <time>2026-08-05T20:13:47Z</time>
      </trkpt><trkpt lat="55.6263160" lon="8.1294540"><ele>5.4</ele>
        <time>2026-08-05T20:13:54Z</time>
      </trkpt><trkpt lat="55.6263170" lon="8.1297940"><ele>5.3</ele>
        <time>2026-08-05T20:14:08Z</time>
      </trkpt><trkpt lat="55.6263030" lon="8.1301270"><ele>5.1</ele>
        <time>2026-08-05T20:14:22Z</time>
      </trkpt><trkpt lat="55.6263310" lon="8.1302930"><ele>5.1</ele>
        <time>2026-08-05T20:14:29Z</time>
      </trkpt><trkpt lat="55.6264210" lon="8.1305900"><ele>5.1</ele>
        <time>2026-08-05T20:14:43Z</time>
      </trkpt><trkpt lat="55.6264820" lon="8.1307110"><ele>5.1</ele>
        <time>2026-08-05T20:14:50Z</time>
      </trkpt><trkpt lat="55.6265770" lon="8.1307690"><ele>5.1</ele>
        <time>2026-08-05T20:14:57Z</time>
      </trkpt><trkpt lat="55.6267280" lon="8.1309650"><ele>5.1</ele>
        <time>2026-08-05T20:15:11Z</time>
      </trkpt><trkpt lat="55.6267950" lon="8.1310990"><ele>5.1</ele>
        <time>2026-08-05T20:15:18Z</time>
      </trkpt><trkpt lat="55.6269010" lon="8.1313760"><ele>5.1</ele>
        <time>2026-08-05T20:15:31Z</time>
      </trkpt><trkpt lat="55.6268580" lon="8.1315560"><ele>5.1</ele>
        <time>2026-08-05T20:15:38Z</time>
      </trkpt><trkpt lat="55.6267710" lon="8.1318420"><ele>5.1</ele>
        <time>2026-08-05T20:15:50Z</time>
      </trkpt><trkpt lat="55.6266450" lon="8.1320910"><ele>5.1</ele>
        <time>2026-08-05T20:16:06Z</time>
      </trkpt><trkpt lat="55.6266230" lon="8.1322490"><ele>5.1</ele>
        <time>2026-08-05T20:16:15Z</time>
      </trkpt><trkpt lat="55.6265660" lon="8.1325780"><ele>5.1</ele>
        <time>2026-08-05T20:16:29Z</time>
      </trkpt><trkpt lat="55.6264710" lon="8.1325950"><ele>5.1</ele>
        <time>2026-08-05T20:16:36Z</time>
      </trkpt><trkpt lat="55.6262810" lon="8.1325400"><ele>5.1</ele>
        <time>2026-08-05T20:16:50Z</time>
      </trkpt><trkpt lat="55.6260930" lon="8.1325380"><ele>5.1</ele>
        <time>2026-08-05T20:17:04Z</time>
      </trkpt><trkpt lat="55.6260230" lon="8.1326610"><ele>5.1</ele>
        <time>2026-08-05T20:17:13Z</time>
      </trkpt></trkseg>
  </trk>
</gpx>